January 28, 2022
Temp
 
49.4 °F
 
Dew Pt.
 
24.9 °F
 
Humidity
 
38%
 
Pressure
 
1024.5 hPa 
  rising slowly
Wind
 
0.0 mph 
    W
Rain
 
0.00 in 
  0.00 in/hr
UV index
 
---  
 
Solar rad.
 
100 W/m²
 
Today

Today: Mostly sunny, with a high near 72. Northeast wind around 15 mph, with gusts as high as 20 mph.
Mostly Sunny
Tonight

Tonight: Partly cloudy, with a low around 49. Northeast wind around 10 mph, with gusts as high as 15 mph.
Partly Cloudy
Hi 72 °F Lo 49 °F
MAP MAG LOCAL DATETIME
y/m/d h:m:s
LAT
deg
LON
deg
DEPTH
km
LOCATION
map1.72022/01/28 07:26:4634.258N116.156W5.36 15 km (10 mi) NNW of Twentynine Palms, CA
map2.42022/01/28 07:14:0339.798N123.182W4.59 6 km ( 4 mi) E of Covelo, CA
map0.92022/01/28 06:08:3338.780N122.767W1.07 1 km ( 1 mi) WNW of The Geysers, CA
map1.12022/01/28 05:58:5833.976N116.843W18.11 6 km ( 4 mi) NNE of Banning, CA
map2.52022/01/28 05:39:0039.798N123.185W5.26 5 km ( 3 mi) E of Covelo, CA
map2.42022/01/28 05:35:4739.797N123.183W5.81 6 km ( 3 mi) E of Covelo, CA
map0.72022/01/28 05:28:2733.628N116.813W13.62 15 km ( 9 mi) SW of Idyllwild, CA
map1.82022/01/28 05:17:3934.361N118.787W16.13 6 km ( 4 mi) S of Piru, CA
map0.82022/01/28 05:12:0633.631N116.814W12.94 15 km ( 9 mi) SSE of Valle Vista, CA
map2.02022/01/28 05:06:2239.786N123.199W-0.47 4 km ( 3 mi) E of Covelo, CA
map0.72022/01/28 04:24:3736.092N117.868W4.89 9 km ( 6 mi) NE of Coso Junction, CA
map0.92022/01/28 04:21:0938.840N122.808W1.03 8 km ( 5 mi) WNW of Cobb, CA
map0.92022/01/28 04:15:3338.823N122.804W2.36 7 km ( 4 mi) NW of The Geysers, CA
map1.32022/01/28 04:09:1336.094N117.873W2.72 9 km ( 5 mi) NE of Coso Junction, CA
map1.52022/01/28 03:59:2134.381N118.722W10.76 8 km ( 5 mi) ESE of Piru, CA
map0.92022/01/28 03:50:3638.836N122.807W2.36 7 km ( 5 mi) WNW of Cobb, CA
map2.82022/01/28 03:39:5638.458N119.487W7.18 38 km (24 mi) SSW of Smith Valley, NV
map1.32022/01/28 03:38:5838.454N119.478W7.8 39 km (24 mi) SSW of Smith Valley, NV
map0.92022/01/28 03:29:4638.842N122.824W1.93 9 km ( 6 mi) WNW of Cobb, CA
map1.52022/01/28 03:17:4337.472N121.815W8.26 9 km ( 6 mi) ENE of Milpitas, CA
map0.52022/01/28 03:07:2933.490N116.478W10.3 19 km (12 mi) ESE of Anza, CA
map2.32022/01/28 02:55:1239.808N123.167W9.82 7 km ( 4 mi) ENE of Covelo, CA
map2.52022/01/28 02:40:0733.842N117.038W13.49 10 km ( 6 mi) NW of San Jacinto, CA
map2.62022/01/28 02:36:5439.794N123.182W6.23 6 km ( 4 mi) E of Covelo, CA
map2.42022/01/28 02:32:1139.792N123.180W5.32 6 km ( 4 mi) E of Covelo, CA
map1.22022/01/28 01:18:3838.193N117.780W2.1 50 km (31 mi) WNW of Tonopah, NV
map1.02022/01/28 01:18:3438.823N122.803W2.43 7 km ( 4 mi) NW of The Geysers, CA
map0.92022/01/28 01:17:4733.270N116.681W18.02 5 km ( 3 mi) WSW of Warner Springs, CA
map2.12022/01/28 00:57:2039.801N123.173W7.62 6 km ( 4 mi) E of Covelo, CA
map1.22022/01/28 00:36:1633.226N116.065W2.79 11 km ( 7 mi) NE of Ocotillo Wells, CA
map0.52022/01/28 00:28:1938.154N118.241W0.0 53 km (33 mi) SE of Hawthorne, NV
map0.62022/01/28 00:12:1938.478N119.528W0.0 38 km (23 mi) SSW of Smith Valley, NV
map0.92022/01/28 00:05:2538.828N122.792W1.82 6 km ( 4 mi) W of Cobb, CA
map1.02022/01/27 23:40:4138.225N118.394W0.0 39 km (24 mi) SSE of Hawthorne, NV
map1.42022/01/27 23:20:5533.206N116.013W3.37 12 km ( 7 mi) SSW of Salton City, CA
map0.82022/01/27 22:56:3638.824N122.803W3.25 7 km ( 4 mi) NW of The Geysers, CA
map0.32022/01/27 22:36:5838.824N122.853W2.36 10 km ( 6 mi) WNW of The Geysers, CA
map1.12022/01/27 22:35:4038.776N122.714W2.04 4 km ( 2 mi) E of The Geysers, CA
map0.72022/01/27 22:15:2433.379N116.871W5.53 3 km ( 2 mi) NNW of Palomar Observatory, CA
map0.92022/01/27 22:12:1338.831N122.801W1.75 7 km ( 4 mi) W of Cobb, CA
map2.62022/01/27 22:05:5832.486N116.930W14.7 10 km ( 6 mi) ESE of Tijuana, B.C., MX
map0.82022/01/27 21:58:0738.815N122.794W2.47 5 km ( 3 mi) NW of The Geysers, CA
map0.82022/01/27 21:44:4838.139N117.986W10.6 67 km (41 mi) W of Tonopah, NV
map1.32022/01/27 21:37:4933.684N117.358W6.06 3 km ( 2 mi) WNW of Lake Elsinore, CA
map0.42022/01/27 21:28:1638.842N122.828W1.7 9 km ( 6 mi) WNW of Cobb, CA
map1.92022/01/27 21:25:5934.316N117.029W2.92 13 km ( 8 mi) NW of Big Bear Lake, CA
map0.92022/01/27 21:07:0738.800N122.822W6.98 6 km ( 4 mi) WNW of The Geysers, CA
map0.42022/01/27 20:55:3838.823N122.854W2.59 10 km ( 6 mi) WNW of The Geysers, CA
map0.42022/01/27 20:54:2938.824N122.853W2.29 10 km ( 6 mi) WNW of The Geysers, CA
map1.32022/01/27 20:54:1338.823N122.854W2.49 10 km ( 6 mi) WNW of The Geysers, CA
map0.92022/01/27 20:41:5138.832N122.817W1.74 8 km ( 5 mi) NW of The Geysers, CA
map0.72022/01/27 20:26:2133.497N116.496W11.88 18 km (11 mi) ESE of Anza, CA
map0.82022/01/27 20:13:5338.824N122.802W7.49 6 km ( 4 mi) NW of The Geysers, CA
map0.82022/01/27 19:54:3735.553N117.538W8.94 15 km ( 9 mi) ESE of Ridgecrest, CA
map1.32022/01/27 19:49:4935.558N117.537W9.39 14 km ( 9 mi) ESE of Ridgecrest, CA
map2.52022/01/27 19:40:1739.798N123.187W-1.14 5 km ( 3 mi) E of Covelo, CA
map0.72022/01/27 18:36:2838.833N122.814W1.79 8 km ( 5 mi) W of Cobb, CA
map1.02022/01/27 18:32:5436.084N117.615W3.66 30 km (19 mi) E of Coso Junction, CA
map0.82022/01/27 18:30:5433.672N116.716W11.87 8 km ( 5 mi) S of Idyllwild, CA
map1.62022/01/27 18:08:0036.389N117.864W0.21 17 km (11 mi) NE of Olancha, CA
map0.42022/01/27 18:05:0538.836N122.808W1.95 7 km ( 5 mi) WNW of Cobb, CA
map1.92022/01/27 18:04:3337.022N120.143W20.43 7 km ( 4 mi) W of Madera Acres, CA
map1.02022/01/27 18:02:0832.936N116.331W10.22 22 km (14 mi) NE of Pine Valley, CA
map1.12022/01/27 17:45:2135.860N117.700W4.64 20 km (13 mi) ESE of Little Lake, CA
map1.12022/01/27 17:40:5238.249N118.365W8.7 38 km (24 mi) SE of Hawthorne, NV
map1.52022/01/27 17:25:2736.156N118.007W1.14 13 km ( 8 mi) NNW of Coso Junction, CA
map2.02022/01/27 17:04:1237.290N121.663W2.37 16 km (10 mi) E of Seven Trees, CA
map1.72022/01/27 16:31:1233.065N115.006W-0.25 1 km ( 0 mi) NW of Quarry at RUN (Probable quarry explosion)
map2.52022/01/27 16:24:3739.799N123.178W6.45 6 km ( 4 mi) E of Covelo, CA
map0.52022/01/27 15:58:4737.466N118.843W4.47 22 km (14 mi) SSE of Mammoth Lakes, CA
map1.12022/01/27 15:46:4733.494N116.781W4.09 10 km ( 6 mi) NE of Aguanga, CA
map0.72022/01/27 15:38:5733.173N116.107W12.57 4 km ( 3 mi) NE of Ocotillo Wells, CA
map0.82022/01/27 15:09:4638.801N122.814W3.17 6 km ( 4 mi) WNW of The Geysers, CA
map1.62022/01/27 14:52:0740.477N124.310W16.83 12 km ( 7 mi) SSW of Ferndale, CA
map1.22022/01/27 14:19:1038.823N122.806W1.68 7 km ( 4 mi) NW of The Geysers, CA
map2.22022/01/27 14:16:3040.483N124.314W17.65 11 km ( 7 mi) SSW of Ferndale, CA
map0.42022/01/27 14:16:1333.692N117.447W5.14 11 km ( 7 mi) WNW of Lakeland Village, CA
map0.82022/01/27 14:15:3033.864N117.512W-0.53 2 km ( 1 mi) NW of Quarry at CORONA (Probable quarry explosion)
map2.82022/01/27 14:07:5840.481N124.317W17.64 12 km ( 7 mi) SSW of Ferndale, CA
map2.12022/01/27 14:05:4831.639N116.010W6.02 53 km (33 mi) E of Maneadero, B.C., MX
map2.02022/01/27 14:03:1239.784N123.179W-1.16 6 km ( 4 mi) E of Covelo, CA
map0.62022/01/27 14:02:3738.811N122.774W5.93 4 km ( 2 mi) NNW of The Geysers, CA
map2.42022/01/27 14:01:0839.795N123.181W6.52 6 km ( 4 mi) E of Covelo, CA
map0.42022/01/27 13:55:0038.890N122.829W-0.82 10 km ( 6 mi) S of Kelseyville, CA
map1.32022/01/27 13:52:5938.843N122.801W2.9 7 km ( 4 mi) WNW of Cobb, CA
map1.82022/01/27 13:43:1435.651N117.538W8.28 13 km ( 8 mi) ENE of Ridgecrest, CA
map0.62022/01/27 13:42:1438.812N122.797W2.12 5 km ( 3 mi) NW of The Geysers, CA
map2.02022/01/27 13:32:4940.477N124.322W18.89 12 km ( 7 mi) SSW of Ferndale, CA
map0.62022/01/27 13:17:3133.831N116.773W13.99 10 km ( 6 mi) S of Cabazon, CA
map0.92022/01/27 13:02:2033.343N117.139W-0.44 5 km ( 3 mi) NNE of Quarry at PALA-HWY (Probable quarry explosion)
map0.42022/01/27 13:02:1438.755N122.760W-0.85 2 km ( 2 mi) S of The Geysers, CA
map0.72022/01/27 12:53:3333.241N116.670W9.26 6 km ( 4 mi) SW of Warner Springs, CA
map0.52022/01/27 12:53:0833.241N116.673W9.21 6 km ( 4 mi) SW of Warner Springs, CA
map1.52022/01/27 12:36:5738.105N122.162W-0.12 20 km (13 mi) SSE of Quarry near Sears Point, CA(Probable quarry explosion)
map0.82022/01/27 12:29:1734.031N117.218W14.57 4 km ( 3 mi) SW of Redlands, CA
map1.72022/01/27 12:24:4534.504N118.834W14.06 10 km ( 7 mi) NNW of Piru, CA
map1.12022/01/27 12:09:4435.642N117.454W6.94 15 km ( 9 mi) SSW of Searles Valley, CA
map2.32022/01/27 11:50:0239.799N123.183W5.92 6 km ( 4 mi) E of Covelo, CA
map0.52022/01/27 11:48:3433.586N116.805W7.69 13 km ( 8 mi) WNW of Anza, CA
map1.52022/01/27 11:39:1534.089N117.559W10.6 4 km ( 3 mi) SSE of Rancho Cucamonga, CA
map1.42022/01/27 11:34:5835.529N118.142W5.46 31 km (20 mi) ESE of Lake Isabella, CA
map1.22022/01/27 11:34:3938.811N122.829W1.26 7 km ( 5 mi) WNW of The Geysers, CA
map1.82022/01/27 11:20:5440.475N124.322W18.77 12 km ( 8 mi) SSW of Ferndale, CA
map1.02022/01/27 11:17:5340.166N119.642W10.4 58 km (36 mi) N of Spanish Springs, NV
map0.92022/01/27 11:08:4338.808N122.825W2.25 7 km ( 4 mi) WNW of The Geysers, CA
map0.82022/01/27 11:03:0538.811N122.771W1.2 4 km ( 2 mi) NNW of The Geysers, CA
map1.92022/01/27 10:34:2235.627N119.868W14.73 33 km (20 mi) NNE of Simmler, CA
map1.82022/01/27 10:33:2940.470N124.313W18.28 13 km ( 8 mi) SSW of Ferndale, CA
map0.42022/01/27 09:39:4838.832N122.801W1.48 7 km ( 4 mi) W of Cobb, CA
map0.32022/01/27 09:32:5738.830N122.854W1.77 10 km ( 6 mi) NW of The Geysers, CA
map1.02022/01/27 09:12:4433.992N116.773W9.2 8 km ( 5 mi) N of Cabazon, CA
map0.82022/01/27 09:09:0537.626N118.893W2.42 8 km ( 5 mi) E of Mammoth Lakes, CA
map0.92022/01/27 09:07:0737.627N118.892W2.32 8 km ( 5 mi) E of Mammoth Lakes, CA
map1.12022/01/27 09:06:4137.628N118.890W3.23 8 km ( 5 mi) E of Mammoth Lakes, CA
map0.32022/01/27 08:49:2937.624N118.894W2.29 8 km ( 5 mi) E of Mammoth Lakes, CA
map0.82022/01/27 08:48:0238.810N122.801W2.24 5 km ( 3 mi) NW of The Geysers, CA
map-0.12022/01/27 08:45:0835.648N117.452W9.47 14 km ( 9 mi) SSW of Searles Valley, CA
map1.02022/01/27 08:44:4438.571N119.471W3.9 26 km (16 mi) SSW of Smith Valley, NV
map0.12022/01/27 08:41:4737.628N118.891W3.22 8 km ( 5 mi) E of Mammoth Lakes, CA
map-0.12022/01/27 07:55:3235.949N117.675W6.18 21 km (13 mi) E of Little Lake, CA
map0.92022/01/27 07:44:1338.842N122.823W1.34 9 km ( 6 mi) WNW of Cobb, CA
map0.82022/01/27 07:34:3538.801N122.816W4.09 6 km ( 4 mi) WNW of The Geysers, CA
map1.12022/01/27 07:32:0537.887N118.572W5.52 45 km (28 mi) NE of Mammoth Lakes, CA
map0.72022/01/27 07:28:1133.682N116.699W15.13 7 km ( 4 mi) SSE of Idyllwild, CA
map-0.12022/01/27 07:14:5137.184N115.998W3.8 74 km (46 mi) ENE of Beatty, NV
map0.92022/01/27 07:04:1133.378N116.879W6.57 3 km ( 2 mi) NNW of Palomar Observatory, CA
map0.22022/01/27 06:54:2638.807N122.798W1.47 5 km ( 3 mi) NW of The Geysers, CA
map0.82022/01/27 06:50:0633.435N116.480W13.72 22 km (14 mi) NE of Warner Springs, CA
map0.12022/01/27 06:40:0537.185N115.999W4.1 74 km (46 mi) ENE of Beatty, NV
map0.82022/01/27 06:22:3338.774N118.852W2.0 34 km (21 mi) NW of Hawthorne, NV
map0.42022/01/27 06:20:3038.014N118.660W12.1 50 km (31 mi) NE of Mammoth Lakes, CA
map0.72022/01/27 06:12:4837.414N118.973W4.12 25 km (15 mi) S of Mammoth Lakes, CA
map-0.12022/01/27 06:05:0539.213N120.072W8.3 4 km ( 2 mi) SSW of Tahoe Vista, CA
map2.32022/01/27 05:45:4638.188N117.747W10.4 47 km (29 mi) WNW of Tonopah, NV
map0.52022/01/27 05:15:4238.779N119.535W5.3 17 km (10 mi) W of Smith Valley, NV
map0.92022/01/27 05:13:3634.013N116.772W17.87 11 km ( 7 mi) N of Cabazon, CA
map0.92022/01/27 05:08:5038.253N118.365W11.8 38 km (23 mi) SE of Hawthorne, NV
map0.42022/01/27 05:07:2538.831N122.818W2.3 8 km ( 5 mi) NW of The Geysers, CA
map1.02022/01/27 04:57:1838.174N117.883W11.0 58 km (36 mi) WNW of Tonopah, NV
map0.92022/01/27 04:22:1038.812N122.821W2.3 7 km ( 4 mi) NW of The Geysers, CA
map2.42022/01/27 04:16:0835.045N118.992W6.01 13 km ( 8 mi) NNW of Grapevine, CA
map1.82022/01/27 04:06:5640.292N124.392W23.69 33 km (21 mi) SW of Rio Dell, CA
map1.32022/01/27 04:03:0738.783N118.852W5.1 35 km (22 mi) NW of Hawthorne, NV
map1.32022/01/27 03:47:3434.041N117.276W18.4 2 km ( 1 mi) WSW of Loma Linda, CA
map0.92022/01/27 03:39:1638.153N122.288W7 3 km ( 2 mi) SW of American Canyon, CA
map-0.22022/01/27 03:36:0940.013N119.618W13.0 41 km (26 mi) N of Spanish Springs, NV
map1.02022/01/27 03:26:4738.798N122.818W3.23 6 km ( 4 mi) WNW of The Geysers, CA
map0.82022/01/27 03:24:3338.801N122.817W4.22 6 km ( 4 mi) WNW of The Geysers, CA
map0.82022/01/27 03:19:5138.268N118.394W11.6 35 km (22 mi) SE of Hawthorne, NV
map2.32022/01/27 03:16:1538.801N122.816W3.01 6 km ( 4 mi) WNW of The Geysers, CA
map2.62022/01/27 03:12:1835.042N118.993W7.93 12 km ( 8 mi) NNW of Grapevine, CA
map1.32022/01/27 03:04:4135.036N118.994W13.77 12 km ( 7 mi) NNW of Grapevine, CA
map0.02022/01/27 03:00:3238.242N118.360W11.6 39 km (24 mi) SE of Hawthorne, NV
map0.92022/01/27 02:55:1133.981N116.809W19.42 7 km ( 5 mi) NNW of Cabazon, CA
map1.02022/01/27 02:54:5733.182N116.035W9.32 10 km ( 6 mi) ENE of Ocotillo Wells, CA
map2.82022/01/27 02:52:4135.040N118.993W9.91 12 km ( 8 mi) NNW of Grapevine, CA
MAP3.52022/01/27 02:51:2235.044N118.996W12.03 13 km ( 8 mi) NNW of Grapevine, CA
map0.42022/01/27 02:45:3638.834N122.819W1.22 8 km ( 5 mi) NW of The Geysers, CA
map1.62022/01/27 02:42:2337.206N121.598W3.27 10 km ( 6 mi) NNE of Morgan Hill, CA
map1.32022/01/27 02:15:3333.480N116.441W12.93 23 km (14 mi) ESE of Anza, CA
map0.02022/01/27 01:59:3836.705N116.332W7.8 44 km (27 mi) ESE of Beatty, NV
map2.22022/01/27 01:54:2635.530N118.141W5.43 32 km (20 mi) ESE of Lake Isabella, CA
map-0.22022/01/27 01:32:0438.228N118.332W5.8 42 km (26 mi) SE of Hawthorne, NV
map0.42022/01/27 01:31:2338.829N122.807W2.18 7 km ( 5 mi) NW of The Geysers, CA
map0.22022/01/27 01:25:0340.107N119.913W6.9 48 km (30 mi) N of Cold Springs, NV
map1.02022/01/27 01:17:5135.979N117.583W6.44 29 km (18 mi) NW of Searles Valley, CA
map0.82022/01/27 01:12:4438.846N122.838W1.73 10 km ( 6 mi) WNW of Cobb, CA
map-0.12022/01/27 01:12:2740.011N119.626W13.2 41 km (25 mi) N of Spanish Springs, NV
map1.32022/01/27 01:12:0538.843N122.837W2.02 10 km ( 6 mi) NW of The Geysers, CA
map1.12022/01/27 01:09:2338.041N119.123W2.66 47 km (29 mi) NNW of Mammoth Lakes, CA
map1.02022/01/27 00:58:2937.391N118.634W8.73 16 km (10 mi) WNW of West Bishop, CA
map0.92022/01/27 00:40:0038.519N119.499W7.9 32 km (20 mi) SSW of Smith Valley, NV
map-0.12022/01/27 00:22:4636.699N116.333W8.4 44 km (27 mi) ESE of Beatty, NV
map1.22022/01/27 00:19:4135.980N117.578W6.32 28 km (18 mi) NNW of Searles Valley, CA
map0.92022/01/27 00:12:2838.836N122.824W0.77 9 km ( 5 mi) NW of The Geysers, CA
map0.92022/01/27 00:11:1738.829N122.809W2.35 7 km ( 5 mi) NW of The Geysers, CA
map0.42022/01/27 00:11:0038.836N122.823W1.01 9 km ( 5 mi) NW of The Geysers, CA
map0.52022/01/27 00:10:0038.829N122.809W2.33 7 km ( 5 mi) NW of The Geysers, CA
map0.42022/01/27 00:06:0438.828N122.855W2.53 10 km ( 6 mi) WNW of The Geysers, CA
map0.72022/01/26 23:59:4835.978N117.582W6.77 28 km (18 mi) NW of Searles Valley, CA
map0.62022/01/26 23:56:0233.405N116.832W13.15 5 km ( 3 mi) SE of Aguanga, CA
map0.92022/01/26 23:31:5638.850N122.817W0.71 9 km ( 5 mi) WNW of Cobb, CA
map1.12022/01/26 23:27:5636.028N117.778W1.82 15 km (10 mi) NE of Little Lake, CA
map0.92022/01/26 23:24:5538.838N122.814W1.08 8 km ( 5 mi) WNW of Cobb, CA
map0.62022/01/26 23:15:0935.980N117.579W6.71 28 km (18 mi) NW of Searles Valley, CA
map0.32022/01/26 23:14:4335.900N117.742W8.55 15 km (10 mi) ESE of Little Lake, CA
map0.72022/01/26 22:42:0636.024N117.758W2.65 17 km (10 mi) NE of Little Lake, CA
map0.82022/01/26 22:41:5735.694N117.530W7.04 14 km ( 9 mi) SW of Searles Valley, CA
map1.02022/01/26 22:41:4434.213N117.575W8.41 9 km ( 5 mi) SW of Lytle Creek, CA
map0.52022/01/26 22:36:3039.202N119.606W3.2 4 km ( 3 mi) SSW of Dayton, NV
map0.92022/01/26 22:32:4738.526N122.575W8 6 km ( 4 mi) S of Calistoga, CA
map1.12022/01/26 22:19:0736.037N117.778W2.08 15 km (10 mi) E of Coso Junction, CA
map0.72022/01/26 22:16:3238.776N122.741W0.09 1 km ( 1 mi) E of The Geysers, CA
map0.72022/01/26 22:04:1138.531N119.533W5.7 33 km (20 mi) SSW of Smith Valley, NV
map1.02022/01/26 22:03:1736.036N117.775W2.03 16 km (10 mi) E of Coso Junction, CA
map0.72022/01/26 22:03:0836.036N117.782W2.47 15 km ( 9 mi) E of Coso Junction, CA
map2.02022/01/26 21:50:5539.803N123.181W7.7 6 km ( 4 mi) ENE of Covelo, CA
map0.92022/01/26 21:48:5539.414N119.918W7.7 11 km ( 7 mi) S of Mogul, NV
map0.42022/01/26 21:43:0138.826N122.798W1.13 6 km ( 4 mi) NW of The Geysers, CA
map0.72022/01/26 21:42:1438.824N122.799W1.57 6 km ( 4 mi) NW of The Geysers, CA
map0.22022/01/26 21:36:0838.780N122.745W0.54 1 km ( 1 mi) ENE of The Geysers, CA
map1.32022/01/26 21:19:1638.520N122.578W9.09 7 km ( 4 mi) S of Calistoga, CA
map0.62022/01/26 21:14:2238.252N118.356W8.8 38 km (24 mi) SE of Hawthorne, NV
map0.62022/01/26 21:14:2034.008N117.203W10.52 6 km ( 3 mi) SSW of Redlands, CA
map1.22022/01/26 21:09:4034.107N116.857W9.83 16 km (10 mi) SSE of Big Bear Lake, CA
map0.22022/01/26 20:57:3438.770N122.725W1 3 km ( 2 mi) ESE of The Geysers, CA
map1.02022/01/26 20:53:4935.659N117.449W10.96 13 km ( 8 mi) SSW of Searles Valley, CA
map0.32022/01/26 20:42:3338.830N122.803W2.25 7 km ( 4 mi) W of Cobb, CA
map-0.42022/01/26 20:36:4737.186N116.003W2.3 73 km (46 mi) ENE of Beatty, NV
map0.82022/01/26 20:30:3733.711N116.762W15.49 5 km ( 3 mi) SW of Idyllwild, CA
map0.92022/01/26 20:23:4238.830N122.802W1.79 7 km ( 4 mi) W of Cobb, CA
map0.82022/01/26 20:18:0838.841N122.879W3.43 13 km ( 8 mi) ENE of Cloverdale, CA
map1.02022/01/26 20:13:4733.559N116.791W11.61 11 km ( 7 mi) W of Anza, CA
map1.42022/01/26 19:59:0738.173N117.840W4.8 55 km (34 mi) WNW of Tonopah, NV
map0.42022/01/26 19:45:0238.833N122.817W1.79 8 km ( 5 mi) NW of The Geysers, CA
map2.32022/01/26 19:34:0135.650N117.456W9.44 14 km ( 9 mi) SSW of Searles Valley, CA
map0.62022/01/26 19:23:0533.735N116.893W4.09 1 km ( 1 mi) S of Valle Vista, CA
map0.52022/01/26 19:19:4533.736N116.891W3.8 1 km ( 1 mi) S of Valle Vista, CA
map0.52022/01/26 19:19:3736.020N117.775W1.18 15 km ( 9 mi) NE of Little Lake, CA
map0.02022/01/26 19:12:4038.847N122.832W1.94 10 km ( 6 mi) WNW of Cobb, CA
map-0.32022/01/26 19:06:2939.409N120.216W8.3 9 km ( 6 mi) NNW of Truckee, CA
map0.42022/01/26 18:49:2038.772N122.740W-0.26 2 km ( 1 mi) ESE of The Geysers, CA
map0.12022/01/26 18:42:4338.236N118.333W7.8 41 km (25 mi) SE of Hawthorne, NV
map0.72022/01/26 18:38:0933.731N116.847W3.42 5 km ( 3 mi) ESE of Valle Vista, CA
map0.52022/01/26 18:27:5738.817N122.765W2.1 4 km ( 2 mi) W of Cobb, CA
map0.72022/01/26 18:27:5537.178N116.010W2.9 73 km (45 mi) ENE of Beatty, NV
map1.32022/01/26 17:59:3435.786N120.336W8.26 8 km ( 5 mi) NNW of Cholame, CA
map0.62022/01/26 17:52:0533.488N116.494W13.13 18 km (11 mi) ESE of Anza, CA
map1.72022/01/26 17:46:1833.352N116.374W12.2 11 km ( 7 mi) N of Borrego Springs, CA
map0.52022/01/26 17:42:5138.818N122.764W1.62 4 km ( 2 mi) W of Cobb, CA
map0.82022/01/26 17:22:5538.821N122.807W2.98 7 km ( 4 mi) NW of The Geysers, CA
map0.62022/01/26 17:16:2933.493N116.779W3.03 10 km ( 6 mi) NE of Aguanga, CA
map0.12022/01/26 17:06:0838.837N122.801W2.72 7 km ( 4 mi) WNW of Cobb, CA
map1.82022/01/26 16:50:4137.689N119.391W17.77 17 km (11 mi) ESE of Yosemite Valley, CA
map1.62022/01/26 16:45:2840.709N122.271W18.54 8 km ( 5 mi) NNW of Bella Vista, CA
map0.42022/01/26 16:43:5738.827N122.808W2.09 7 km ( 4 mi) NW of The Geysers, CA
map-0.12022/01/26 16:30:0538.244N118.360W10.5 39 km (24 mi) SE of Hawthorne, NV
map1.12022/01/26 16:21:3338.090N118.739W9.7 49 km (31 mi) SSW of Hawthorne, NV
map1.52022/01/26 16:19:4537.938N118.359W3.4 62 km (38 mi) N of Dixon Lane-Meadow Creek, CA
map0.62022/01/26 16:19:2937.592N118.794W5.44 17 km (11 mi) ESE of Mammoth Lakes, CA
map0.62022/01/26 16:17:2636.022N117.773W1.81 15 km ( 9 mi) NE of Little Lake, CA
map1.02022/01/26 16:08:4538.153N118.027W3.0 67 km (41 mi) SE of Hawthorne, NV
map0.32022/01/26 16:07:4133.485N116.433W13.58 23 km (14 mi) SSW of La Quinta, CA
map1.62022/01/26 16:06:4138.158N118.016W5.1 67 km (42 mi) SE of Hawthorne, NV
map0.82022/01/26 15:35:1035.909N117.685W8.4 20 km (13 mi) E of Little Lake, CA
map0.42022/01/26 15:29:5338.556N119.500W6.5 29 km (18 mi) SSW of Smith Valley, NV
map1.22022/01/26 15:28:0333.966N117.148W17.95 9 km ( 5 mi) ENE of Moreno Valley, CA
map0.32022/01/26 15:27:5440.058N119.678W9.4 46 km (28 mi) N of Spanish Springs, NV
map1.12022/01/26 14:57:1938.823N122.803W3.46 6 km ( 4 mi) NW of The Geysers, CA
map1.22022/01/26 14:57:0736.021N117.775W1.82 15 km ( 9 mi) NE of Little Lake, CA
map1.22022/01/26 14:54:5335.906N117.701W8.83 19 km (12 mi) E of Little Lake, CA
map1.02022/01/26 14:53:4636.023N117.775W1.9 15 km ( 9 mi) NE of Little Lake, CA
map1.92022/01/26 14:33:5034.430N119.840W3.35 1 km ( 1 mi) WSW of Goleta, CA
map1.32022/01/26 14:30:4837.627N118.891W2.9 8 km ( 5 mi) E of Mammoth Lakes, CA
map0.82022/01/26 14:05:2036.024N117.767W1.27 16 km (10 mi) NE of Little Lake, CA
map0.62022/01/26 14:05:1336.022N117.768W1.68 16 km (10 mi) NE of Little Lake, CA
map1.32022/01/26 13:57:2837.667N119.406W4.41 17 km (11 mi) ESE of Yosemite Valley, CA
map1.42022/01/26 13:49:0037.940N118.364W7.1 62 km (38 mi) N of Dixon Lane-Meadow Creek, CA
map0.82022/01/26 13:35:4738.805N122.783W3.13 4 km ( 2 mi) NW of The Geysers, CA
map0.22022/01/26 13:15:0733.649N116.724W12 10 km ( 6 mi) S of Idyllwild, CA
map0.32022/01/26 13:14:5733.651N116.725W12.11 10 km ( 6 mi) S of Idyllwild, CA
map0.92022/01/26 12:49:0534.033N116.975W12.84 6 km ( 4 mi) E of Yucaipa, CA
map1.22022/01/26 12:48:5340.170N119.641W9.8 58 km (36 mi) N of Spanish Springs, NV
map0.82022/01/26 12:46:0036.023N117.776W2.31 15 km ( 9 mi) NE of Little Lake, CA
map0.52022/01/26 12:45:5736.018N117.775W2.33 15 km ( 9 mi) NE of Little Lake, CA
map0.22022/01/26 12:39:0738.776N122.729W1.45 2 km ( 2 mi) E of The Geysers, CA
map2.32022/01/26 12:08:1240.189N123.130W33.29 41 km (25 mi) S of Hayfork, CA
map1.12022/01/26 12:07:5935.900N117.740W7.95 16 km (10 mi) ESE of Little Lake, CA
map0.12022/01/26 12:03:2938.245N118.346W8.2 39 km (25 mi) SE of Hawthorne, NV
map0.62022/01/26 12:01:5638.759N122.717W1.75 4 km ( 2 mi) ESE of The Geysers, CA
map1.72022/01/26 12:01:1633.821N117.489W-0.36 3 km ( 2 mi) SSE of Quarry at CORONA (Probable quarry explosion)
map0.62022/01/26 11:57:5733.675N116.765W14.68 8 km ( 5 mi) SSW of Idyllwild, CA
map-0.32022/01/26 11:46:5737.254N116.032W7.5 75 km (46 mi) ENE of Beatty, NV
map0.52022/01/26 11:37:2138.792N122.764W2.04 2 km ( 1 mi) NNW of The Geysers, CA
map0.42022/01/26 11:33:0738.783N122.762W1.73 1 km ( 1 mi) NW of The Geysers, CA
map0.92022/01/26 11:32:5438.822N122.790W1.21 6 km ( 4 mi) NNW of The Geysers, CA
map0.12022/01/26 11:31:4738.242N118.358W9.6 39 km (24 mi) SE of Hawthorne, NV
map0.92022/01/26 11:17:1638.836N122.824W-0.33 9 km ( 5 mi) NW of The Geysers, CA
map0.62022/01/26 10:46:4337.512N118.860W2.74 17 km (11 mi) SE of Mammoth Lakes, CA
map0.82022/01/26 10:41:3636.011N117.802W1.98 13 km ( 8 mi) NE of Little Lake, CA
map0.72022/01/26 10:33:5338.257N118.357W10.5 38 km (23 mi) SE of Hawthorne, NV
map0.42022/01/26 10:29:3637.494N118.917W8.74 17 km (10 mi) SSE of Mammoth Lakes, CA
map0.72022/01/26 10:20:2238.258N118.359W7.4 38 km (23 mi) SE of Hawthorne, NV
map0.62022/01/26 10:17:1935.978N117.580W6.41 28 km (18 mi) NW of Searles Valley, CA
map1.12022/01/26 09:37:2738.254N118.359W10.0 38 km (24 mi) SE of Hawthorne, NV
map0.92022/01/26 09:33:1338.815N122.825W2.22 7 km ( 5 mi) NW of The Geysers, CA
map0.72022/01/26 09:28:5733.476N116.457W12.7 22 km (14 mi) ESE of Anza, CA
map1.12022/01/26 09:01:3336.060N117.858W2.32 8 km ( 5 mi) E of Coso Junction, CA
map0.62022/01/26 08:47:4936.010N117.798W2.06 13 km ( 8 mi) NE of Little Lake, CA
map0.32022/01/26 08:39:3035.688N117.503W6.15 13 km ( 8 mi) SW of Searles Valley, CA
map0.42022/01/26 08:39:1535.683N117.525W4.68 14 km ( 9 mi) SW of Searles Valley, CA
map0.82022/01/26 08:39:1436.083N117.621W3.08 30 km (18 mi) E of Coso Junction, CA
map0.72022/01/26 08:21:5638.558N119.515W5.9 29 km (18 mi) SSW of Smith Valley, NV
map1.32022/01/26 08:20:3736.853N121.549W5.45 1 km ( 1 mi) NW of San Juan Bautista, CA
map0.92022/01/26 08:20:3638.553N119.519W6.0 30 km (19 mi) SSW of Smith Valley, NV
map1.82022/01/26 07:51:1936.504N121.080W6.64 24 km (15 mi) ENE of Soledad, CA
map0.22022/01/26 07:45:1737.638N118.974W4.71 0 km ( 0 mi) ENE of Mammoth Lakes, CA
map1.52022/01/26 07:43:3238.617N122.717W6.52 12 km ( 7 mi) NE of Windsor, CA
map1.72022/01/26 07:35:2734.670N116.349W2.47 18 km (11 mi) WSW of Ludlow, CA
map0.32022/01/26 07:20:3136.009N117.798W1.44 13 km ( 8 mi) NE of Little Lake, CA
map0.72022/01/26 07:11:2935.684N117.521W2.71 14 km ( 9 mi) SW of Searles Valley, CA
map0.72022/01/26 07:01:5337.636N118.975W4.34 0 km ( 0 mi) ESE of Mammoth Lakes, CA
map1.42022/01/26 06:52:1137.613N122.497W7.54 1 km ( 1 mi) W of Pacifica, CA
map1.02022/01/26 06:40:0137.497N118.854W2.79 19 km (12 mi) SE of Mammoth Lakes, CA
map1.52022/01/26 06:38:5337.694N121.611W18.19 12 km ( 7 mi) SSW of Mountain House, CA
map0.42022/01/26 06:37:0333.493N116.476W14.48 20 km (12 mi) ESE of Anza, CA
map1.32022/01/26 06:36:0737.688N121.626W19.66 12 km ( 8 mi) E of Livermore, CA
map0.12022/01/26 05:57:3738.253N118.368W10.8 38 km (23 mi) SE of Hawthorne, NV
map0.52022/01/26 05:52:2133.600N116.805W7.27 13 km ( 8 mi) WNW of Anza, CA
map2.32022/01/26 05:32:1434.010N119.130W0.86 17 km (10 mi) SSE of Port Hueneme, CA
map1.02022/01/26 05:28:0935.879N117.671W7.5 22 km (14 mi) ESE of Little Lake, CA
map2.22022/01/26 05:24:2833.696N119.009W2.02 25 km (16 mi) N of Santa Barbara Is., CA
map1.22022/01/26 05:22:0036.239N120.809W6.47 29 km (18 mi) E of King City, CA
map1.02022/01/26 05:16:4833.103N116.501W6.54 10 km ( 6 mi) ENE of Julian, CA
map1.62022/01/26 04:59:0136.023N117.776W1.51 15 km ( 9 mi) NE of Little Lake, CA
map1.12022/01/26 04:29:3037.865N118.612W0.72 41 km (25 mi) NE of Mammoth Lakes, CA
map1.12022/01/26 04:16:1135.547N117.340W8.03 24 km (15 mi) S of Trona, CA
map0.42022/01/26 04:13:5033.589N116.805W7.5 13 km ( 8 mi) WNW of Anza, CA
map0.02022/01/26 04:11:5436.706N116.331W7.4 44 km (27 mi) ESE of Beatty, NV
map1.02022/01/26 04:08:4136.023N117.779W1.27 15 km ( 9 mi) NE of Little Lake, CA
map0.92022/01/26 03:40:0038.837N122.802W2.34 7 km ( 4 mi) WNW of Cobb, CA
map0.62022/01/26 03:22:0038.060N118.717W11.1 52 km (33 mi) NNE of Mammoth Lakes, CA
map0.62022/01/26 03:10:1436.026N117.775W1.93 16 km (10 mi) NE of Little Lake, CA
map0.52022/01/26 03:08:5236.028N117.773W1.89 16 km (10 mi) NE of Little Lake, CA
map0.52022/01/26 03:04:1136.025N117.774W2.18 15 km (10 mi) NE of Little Lake, CA
map0.92022/01/26 03:02:2736.023N117.775W1.59 15 km ( 9 mi) NE of Little Lake, CA
map-0.12022/01/26 02:54:0036.643N116.281W5.6 52 km (32 mi) SE of Beatty, NV
map0.32022/01/26 02:48:0037.485N118.850W2.86 20 km (13 mi) SE of Mammoth Lakes, CA
map0.02022/01/26 02:44:1836.036N117.769W2.57 16 km (10 mi) E of Coso Junction, CA
map0.62022/01/26 02:43:5835.688N117.486W7.06 12 km ( 7 mi) SW of Searles Valley, CA
map0.02022/01/26 02:43:1936.026N117.768W2.21 16 km (10 mi) NE of Little Lake, CA
map0.02022/01/26 02:43:0435.880N117.677W7.22 22 km (13 mi) ESE of Little Lake, CA
map0.12022/01/26 02:42:5235.875N117.680W2.76 22 km (13 mi) ESE of Little Lake, CA
map0.82022/01/26 02:42:1736.027N117.778W1.6 15 km (10 mi) NE of Little Lake, CA
map0.52022/01/26 02:42:0936.028N117.775W1.34 16 km (10 mi) NE of Little Lake, CA
MAP3.12022/01/26 02:38:3036.023N117.775W1.83 15 km ( 9 mi) NE of Little Lake, CA
map1.42022/01/26 02:32:3336.026N117.782W1.59 15 km ( 9 mi) NE of Little Lake, CA
map1.42022/01/26 02:29:4832.938N115.515W8.26 5 km ( 3 mi) SSE of Brawley, CA
map0.72022/01/26 02:22:4339.344N119.757W0.1 19 km (12 mi) NW of Dayton, NV
map-0.22022/01/26 02:16:1239.359N119.761W0.4 19 km (12 mi) SSE of Reno, NV
map0.52022/01/26 02:13:2536.022N117.775W2.13 15 km ( 9 mi) NE of Little Lake, CA
map0.82022/01/26 02:03:1136.023N117.775W1.67 15 km ( 9 mi) NE of Little Lake, CA
map0.12022/01/26 02:03:0536.028N117.779W1.79 15 km (10 mi) E of Coso Junction, CA
MAP3.02022/01/26 01:59:1736.023N117.776W1.63 15 km ( 9 mi) NE of Little Lake, CA
MAP3.02022/01/26 01:59:0536.026N117.779W1.74 15 km ( 9 mi) NE of Little Lake, CA
map0.92022/01/26 01:55:5437.714N116.072W0.0 89 km (55 mi) WNW of Alamo, NV
map0.62022/01/26 01:53:1038.562N119.510W5.8 29 km (18 mi) SSW of Smith Valley, NV
map1.72022/01/26 01:47:5136.009N120.574W2.74 18 km (11 mi) NW of Parkfield, CA
map1.12022/01/26 01:47:3238.560N119.508W6.6 29 km (18 mi) SSW of Smith Valley, NV
map0.82022/01/26 01:45:0138.559N119.506W6.3 29 km (18 mi) SSW of Smith Valley, NV
map1.32022/01/26 01:34:2636.023N117.779W1.78 15 km ( 9 mi) NE of Little Lake, CA
map0.72022/01/26 00:53:0737.478N118.826W6.15 22 km (14 mi) SE of Mammoth Lakes, CA
map0.62022/01/26 00:50:3133.736N116.893W4.35 1 km ( 1 mi) S of Valle Vista, CA
map0.82022/01/26 00:49:2633.732N116.894W5.16 2 km ( 1 mi) S of Valle Vista, CA
map0.82022/01/26 00:26:4035.879N117.677W6.7 22 km (13 mi) ESE of Little Lake, CA
map1.32022/01/26 00:21:2338.821N122.813W3.14 7 km ( 4 mi) NW of The Geysers, CA
map1.12022/01/26 00:14:1038.832N122.789W1.94 6 km ( 4 mi) W of Cobb, CA
map0.92022/01/26 00:08:1538.829N122.816W2.06 8 km ( 5 mi) NW of The Geysers, CA
map0.12022/01/25 23:41:3037.628N118.894W2.71 8 km ( 5 mi) E of Mammoth Lakes, CA
map1.22022/01/25 23:17:2536.027N117.779W1.75 15 km ( 9 mi) NE of Little Lake, CA
map0.92022/01/25 23:16:5038.259N118.362W11.0 37 km (23 mi) SE of Hawthorne, NV
map0.62022/01/25 23:01:5738.790N122.732W1.74 3 km ( 2 mi) NE of The Geysers, CA
map0.82022/01/25 22:51:1234.535N118.133W10.34 4 km ( 3 mi) NNW of Vincent, CA
map0.92022/01/25 22:46:1538.249N118.354W8.9 39 km (24 mi) SE of Hawthorne, NV
map0.82022/01/25 22:33:5533.100N116.498W8.07 10 km ( 6 mi) ENE of Julian, CA
map0.92022/01/25 22:25:3738.786N122.738W1.71 2 km ( 1 mi) ENE of The Geysers, CA
map2.72022/01/25 22:23:1132.907N118.647W0.96 14 km ( 9 mi) SSW of San Clemente Is. (NW tip), CA
map0.72022/01/25 21:54:0336.027N117.778W2.04 15 km (10 mi) NE of Little Lake, CA
map1.22022/01/25 21:45:3436.026N117.781W1.76 15 km ( 9 mi) NE of Little Lake, CA
map0.92022/01/25 21:35:4938.836N122.785W4.01 6 km ( 3 mi) WNW of Cobb, CA
map0.62022/01/25 21:15:5336.025N117.776W1.88 15 km ( 9 mi) NE of Little Lake, CA
map1.12022/01/25 21:14:0036.027N117.779W1.95 15 km ( 9 mi) NE of Little Lake, CA
map2.12022/01/25 21:11:2136.025N117.777W1.91 15 km ( 9 mi) NE of Little Lake, CA
map1.02022/01/25 21:08:1936.028N117.777W1.91 15 km (10 mi) NE of Little Lake, CA
map1.62022/01/25 21:07:4936.026N117.779W1.48 15 km ( 9 mi) NE of Little Lake, CA
map0.92022/01/25 21:07:2635.992N117.818W4.45 10 km ( 6 mi) NE of Little Lake, CA
map2.62022/01/25 21:05:5536.026N117.781W1.66 15 km ( 9 mi) NE of Little Lake, CA
map1.62022/01/25 21:02:4336.026N117.781W1.66 15 km ( 9 mi) NE of Little Lake, CA
map1.52022/01/25 21:01:5738.816N122.812W3.24 6 km ( 4 mi) NW of The Geysers, CA
map2.02022/01/25 21:01:5436.025N117.780W1.86 15 km ( 9 mi) NE of Little Lake, CA
map2.02022/01/25 21:01:0036.026N117.781W1.78 15 km ( 9 mi) NE of Little Lake, CA
map1.22022/01/25 21:00:4936.025N117.779W1.7 15 km ( 9 mi) NE of Little Lake, CA
map1.22022/01/25 21:00:1938.174N117.888W8.1 59 km (36 mi) WNW of Tonopah, NV
map2.92022/01/25 21:00:0136.025N117.781W1.65 15 km ( 9 mi) NE of Little Lake, CA
map0.72022/01/25 20:35:3736.114N117.808W7.55 15 km ( 9 mi) ENE of Coso Junction, CA
map0.92022/01/25 20:33:0137.410N118.528W9.16 8 km ( 5 mi) NW of West Bishop, CA
map1.02022/01/25 20:15:1837.701N116.027W4.3 85 km (53 mi) WNW of Alamo, NV
map1.02022/01/25 20:15:1538.792N122.761W2.61 2 km ( 1 mi) NNW of The Geysers, CA
map0.82022/01/25 20:14:5135.965N117.684W2.61 20 km (13 mi) E of Little Lake, CA
map1.22022/01/25 20:12:3138.792N122.759W2.4 2 km ( 1 mi) N of The Geysers, CA
map0.42022/01/25 20:09:0440.158N119.626W5.9 57 km (35 mi) N of Spanish Springs, NV
map-0.22022/01/25 19:59:2136.735N116.298W8.7 45 km (28 mi) ESE of Beatty, NV
map1.52022/01/25 19:48:2740.499N119.174W9.4 69 km (43 mi) WNW of Lovelock, NV
map0.92022/01/25 19:31:1438.789N122.766W2.37 2 km ( 1 mi) NNW of The Geysers, CA
map1.52022/01/25 19:30:3736.167N117.387W0.42 44 km (28 mi) N of Searles Valley, CA
map0.92022/01/25 19:28:2438.186N117.768W7.9 49 km (30 mi) WNW of Tonopah, NV
map1.62022/01/25 19:04:3937.702N116.042W0.0 86 km (53 mi) WNW of Alamo, NV
map0.82022/01/25 18:58:5937.713N115.996W0.0 83 km (52 mi) WNW of Alamo, NV
map0.62022/01/25 18:43:1633.934N117.082W16.62 7 km ( 4 mi) SSW of Calimesa, CA
map0.62022/01/25 18:13:0433.755N116.675W12.67 4 km ( 3 mi) ENE of Idyllwild, CA
map0.72022/01/25 17:49:1633.700N116.798W16.35 9 km ( 5 mi) WSW of Idyllwild, CA
map0.42022/01/25 17:41:4238.784N122.724W1.99 3 km ( 2 mi) ENE of The Geysers, CA
map0.32022/01/25 17:39:1538.820N122.842W2.09 9 km ( 5 mi) WNW of The Geysers, CA
map0.62022/01/25 17:34:1738.794N122.764W1.16 2 km ( 1 mi) NNW of The Geysers, CA
map1.92022/01/25 17:30:5038.163N122.288W6.73 3 km ( 2 mi) WSW of American Canyon, CA
map0.82022/01/25 17:26:2336.007N120.580W2.71 18 km (11 mi) NW of Parkfield, CA
map1.32022/01/25 17:22:1640.483N119.190W11.3 69 km (43 mi) WNW of Lovelock, NV
map0.92022/01/25 16:41:5333.060N116.377W16.02 21 km (13 mi) E of Julian, CA
map0.52022/01/25 16:40:5837.694N116.011W6.7 83 km (52 mi) WNW of Alamo, NV
map0.92022/01/25 16:25:4438.773N122.742W0.8 1 km ( 1 mi) ESE of The Geysers, CA
map1.42022/01/25 16:24:2535.034N117.674W-0.78 1 km ( 0 mi) NE of Quarry at BORON (Probable quarry explosion)
MAP3.22022/01/25 16:21:2640.507N119.179W9.5 70 km (43 mi) WNW of Lovelock, NV
map1.02022/01/25 16:09:0738.814N122.825W1.99 7 km ( 5 mi) NW of The Geysers, CA
map-0.32022/01/25 16:06:2738.835N122.820W2.14 8 km ( 5 mi) NW of The Geysers, CA
map2.02022/01/25 16:03:2433.156N116.008W6.83 12 km ( 7 mi) E of Ocotillo Wells, CA
map0.42022/01/25 16:00:0633.489N116.438W13.29 23 km (14 mi) SSW of La Quinta, CA
map2.62022/01/25 15:53:3540.349N124.764W15.97 49 km (31 mi) WSW of Ferndale, CA
map0.42022/01/25 15:50:5238.832N122.804W0.02 7 km ( 4 mi) W of Cobb, CA
map0.42022/01/25 15:49:4238.828N122.806W1.17 7 km ( 4 mi) NW of The Geysers, CA
map1.32022/01/25 15:38:3138.394N118.717W0.0 17 km (10 mi) SSW of Hawthorne, NV
map0.52022/01/25 15:24:3238.822N122.796W2.92 6 km ( 4 mi) NW of The Geysers, CA
map0.92022/01/25 15:11:3537.609N118.782W6.27 18 km (11 mi) E of Mammoth Lakes, CA
map0.62022/01/25 15:07:0337.590N118.781W7.17 18 km (11 mi) ESE of Mammoth Lakes, CA
map0.92022/01/25 15:02:5838.253N118.367W9.5 38 km (23 mi) SE of Hawthorne, NV
map0.52022/01/25 15:00:3337.619N118.796W4.86 16 km (10 mi) E of Mammoth Lakes, CA
map0.62022/01/25 14:56:2433.432N116.603W7.39 15 km ( 9 mi) SSE of Anza, CA
map0.82022/01/25 14:30:5038.171N117.926W12.1 62 km (38 mi) W of Tonopah, NV
map2.32022/01/25 14:12:5638.515N119.517W4.85 34 km (21 mi) SSW of Smith Valley, NV
map1.52022/01/25 13:53:4432.606N116.998W-0.32 3 km ( 2 mi) W of Quarry at SYS-1 (Probable quarry explosion)
map2.12022/01/25 13:42:4637.240N119.895W23.85 12 km ( 8 mi) WNW of Yosemite Lakes, CA
map1.12022/01/25 13:37:4138.787N122.765W1.83 1 km ( 1 mi) NW of The Geysers, CA
map0.62022/01/25 13:24:0737.449N118.894W1.06 22 km (14 mi) SSE of Mammoth Lakes, CA
map2.42022/01/25 13:21:3033.994N119.109W9.7 19 km (12 mi) SSE of Port Hueneme, CA
map1.22022/01/25 13:21:1038.831N122.795W1.64 6 km ( 4 mi) W of Cobb, CA
map1.12022/01/25 13:20:5138.831N122.795W1.75 6 km ( 4 mi) W of Cobb, CA
map1.42022/01/25 13:17:4133.922N116.901W9.45 2 km ( 1 mi) W of Banning, CA
map0.92022/01/25 13:06:4238.786N122.748W0.38 1 km ( 1 mi) NE of The Geysers, CA
map1.42022/01/25 13:04:0138.145N117.844W10.9 54 km (34 mi) W of Tonopah, NV
map0.52022/01/25 12:49:2238.252N118.370W10.1 38 km (23 mi) SE of Hawthorne, NV
map1.62022/01/25 12:25:4432.472N115.249W5.98 14 km ( 9 mi) NNW of Delta, B.C., MX
map2.82022/01/25 12:24:0038.182N117.808W9.3 52 km (32 mi) WNW of Tonopah, NV
map0.62022/01/25 12:15:2038.265N118.391W16.0 35 km (22 mi) SE of Hawthorne, NV
map0.32022/01/25 12:09:4935.931N117.678W4.3 21 km (13 mi) E of Little Lake, CA
map0.22022/01/25 11:49:4438.246N118.377W13.4 38 km (23 mi) SE of Hawthorne, NV
map1.02022/01/25 11:43:0538.840N122.823W1.41 9 km ( 5 mi) WNW of Cobb, CA
map0.82022/01/25 11:38:3633.397N116.970W8.52 11 km ( 7 mi) ENE of Pala, CA
map2.02022/01/25 11:28:1835.900N117.682W8.95 21 km (13 mi) E of Little Lake, CA
map0.62022/01/25 11:27:0338.804N122.782W3 4 km ( 2 mi) NW of The Geysers, CA
map1.02022/01/25 11:21:3033.304N116.280W10.97 10 km ( 6 mi) ENE of Borrego Springs, CA
map-0.52022/01/25 11:19:1535.938N117.610W5.01 27 km (17 mi) NW of Searles Valley, CA
map1.82022/01/25 11:11:4433.063N115.007W-0.25 1 km ( 0 mi) WNW of Quarry at RUN (Probable quarry explosion)
map1.92022/01/25 11:00:4137.358N117.929W8.97 38 km (24 mi) NE of Big Pine, CA
map1.92022/01/25 10:59:1238.953N118.797W5.8 32 km (20 mi) E of Yerington, NV
map1.72022/01/25 10:46:2438.779N122.746W0.64 1 km ( 1 mi) ENE of The Geysers, CA
map0.92022/01/25 10:45:1338.786N122.753W2.27 1 km ( 1 mi) NNE of The Geysers, CA
map0.82022/01/25 10:43:0933.085N116.602W11.18 1 km ( 0 mi) N of Julian, CA
map0.82022/01/25 10:39:4238.820N122.803W2.96 6 km ( 4 mi) NW of The Geysers, CA
map0.42022/01/25 10:33:5038.842N122.825W2.05 9 km ( 6 mi) WNW of Cobb, CA
map0.72022/01/25 10:16:3134.082N117.794W2.58 3 km ( 2 mi) SSE of San Dimas, CA
map-0.02022/01/25 09:55:4835.977N117.575W5.85 28 km (17 mi) NNW of Searles Valley, CA
map1.62022/01/25 09:53:0735.885N117.703W8.78 19 km (12 mi) ESE of Little Lake, CA
map2.02022/01/25 09:50:0738.901N119.643W3.7 9 km ( 5 mi) E of Gardnerville Ranchos, NV
map0.32022/01/25 09:47:4333.482N116.505W11.93 18 km (11 mi) ESE of Anza, CA
map1.32022/01/25 09:38:2838.544N119.494W4.0 30 km (18 mi) SSW of Smith Valley, NV
map1.72022/01/25 09:30:4933.832N116.746W12.63 10 km ( 6 mi) SSE of Cabazon, CA
map1.82022/01/25 09:28:3440.708N122.270W18.76 8 km ( 5 mi) NNW of Bella Vista, CA
map2.42022/01/25 09:23:1933.998N119.098W9.76 19 km (12 mi) SSE of Port Hueneme, CA
map1.22022/01/25 09:22:5035.673N117.466W9.9 12 km ( 7 mi) SSW of Searles Valley, CA
map0.52022/01/25 09:22:5036.002N117.779W3.04 14 km ( 8 mi) ENE of Little Lake, CA
map1.82022/01/25 09:19:4436.174N120.240W8.2 11 km ( 7 mi) ENE of Coalinga, CA
map2.32022/01/25 09:16:3336.163N120.253W6.25 10 km ( 6 mi) ENE of Coalinga, CA
map1.22022/01/25 08:49:0234.416N117.775W6.6 9 km ( 5 mi) S of Llano, CA
map1.62022/01/25 08:05:3733.913N115.726W7.14 37 km (23 mi) NW of Desert Center, CA
map1.72022/01/25 07:39:5338.256N118.366W7.9 37 km (23 mi) SE of Hawthorne, NV
map0.62022/01/25 07:18:3838.243N118.345W7.9 40 km (25 mi) SE of Hawthorne, NV
map1.72022/01/25 06:45:2638.179N117.786W0.9 50 km (31 mi) WNW of Tonopah, NV
map2.52022/01/25 06:45:1333.979N119.115W3.1 20 km (13 mi) SSE of Port Hueneme, CA
map1.02022/01/25 06:36:2738.275N118.375W13.5 35 km (22 mi) SE of Hawthorne, NV
map1.52022/01/25 06:33:3738.184N117.867W5.3 57 km (36 mi) WNW of Tonopah, NV
map1.82022/01/25 06:23:4636.848N121.556W7.07 2 km ( 1 mi) W of San Juan Bautista, CA
map1.52022/01/25 06:19:3737.694N121.625W17.89 12 km ( 8 mi) SW of Mountain House, CA
map1.62022/01/25 06:19:1737.693N121.622W17.76 12 km ( 8 mi) SW of Mountain House, CA
map2.02022/01/25 05:59:4738.253N118.357W11.1 38 km (24 mi) SE of Hawthorne, NV
map0.22022/01/25 05:34:4138.249N118.364W11.0 38 km (24 mi) SE of Hawthorne, NV
map1.12022/01/25 05:27:4938.259N118.361W6.2 37 km (23 mi) SE of Hawthorne, NV
map0.82022/01/25 05:23:0338.253N118.363W10.0 38 km (24 mi) SE of Hawthorne, NV
map1.02022/01/25 05:20:1433.924N117.987W7.25 2 km ( 2 mi) ENE of La Mirada, CA
map1.12022/01/25 05:15:0033.257N116.322W6.62 5 km ( 3 mi) E of Borrego Springs, CA
map0.92022/01/25 05:14:4938.249N118.368W11.3 38 km (24 mi) SE of Hawthorne, NV
map1.62022/01/25 05:14:0438.252N118.364W8.4 38 km (24 mi) SE of Hawthorne, NV
map0.92022/01/25 05:06:0634.221N117.635W11.93 12 km ( 7 mi) NNW of Rancho Cucamonga, CA
map0.72022/01/25 05:05:5934.221N117.631W11.51 12 km ( 7 mi) NNW of Rancho Cucamonga, CA
map1.62022/01/25 05:04:2533.923N117.980W7.48 3 km ( 2 mi) ENE of La Mirada, CA
map0.82022/01/25 05:02:3338.252N118.355W8.7 38 km (24 mi) SE of Hawthorne, NV
map1.12022/01/25 04:49:4738.787N122.771W2.12 2 km ( 1 mi) NW of The Geysers, CA
map1.02022/01/25 04:30:4138.150N122.448W6.2 7 km ( 4 mi) NE of Black Point-Green Point, CA
map0.22022/01/25 04:10:4038.251N118.367W9.7 38 km (24 mi) SE of Hawthorne, NV
map1.52022/01/25 03:59:4733.262N116.814W14.53 5 km ( 3 mi) WNW of Lake Henshaw, CA
map0.52022/01/25 03:59:3233.154N116.549W14.96 10 km ( 6 mi) NNE of Julian, CA
map2.02022/01/25 03:51:1133.911N116.584W13.39 4 km ( 2 mi) WNW of Garnet, CA
map0.52022/01/25 02:54:5137.502N118.914W10.88 16 km (10 mi) SSE of Mammoth Lakes, CA
map1.22022/01/25 02:53:5638.261N118.362W7.9 37 km (23 mi) SE of Hawthorne, NV
map-0.12022/01/25 02:53:0536.728N116.288W6.7 46 km (29 mi) ESE of Beatty, NV
map1.32022/01/25 02:45:2632.900N115.510W6.46 8 km ( 5 mi) NE of Imperial, CA
map0.32022/01/25 02:36:0137.634N119.070W-1.73 8 km ( 5 mi) W of Mammoth Lakes, CA
map0.82022/01/25 02:31:2638.525N119.523W6.6 33 km (20 mi) SSW of Smith Valley, NV
map1.02022/01/25 02:27:5835.668N117.476W7.36 13 km ( 8 mi) SSW of Searles Valley, CA
map0.82022/01/25 02:22:2139.491N120.265W5.0 19 km (12 mi) NNW of Truckee, CA
map-0.22022/01/25 02:13:0039.620N120.595W8.2 24 km (15 mi) SSW of Portola, CA
map0.22022/01/25 02:12:2937.633N119.044W0.38 6 km ( 4 mi) W of Mammoth Lakes, CA
map1.32022/01/25 02:07:3638.253N118.362W0.9 38 km (24 mi) SE of Hawthorne, NV
map1.32022/01/25 02:06:3738.185N117.791W0.9 51 km (31 mi) WNW of Tonopah, NV
map-0.32022/01/25 01:40:5738.237N118.333W4.9 41 km (25 mi) SE of Hawthorne, NV
map1.62022/01/25 01:39:3536.505N121.078W6.65 24 km (15 mi) ENE of Soledad, CA
map1.72022/01/25 01:20:1738.254N118.364W9.3 38 km (23 mi) SE of Hawthorne, NV
map0.92022/01/25 01:13:0933.405N116.386W8.41 17 km (10 mi) N of Borrego Springs, CA
map1.32022/01/25 01:09:2837.134N115.360W12.7 31 km (19 mi) SW of Alamo, NV
map0.72022/01/25 00:49:4038.132N117.987W9.4 67 km (41 mi) W of Tonopah, NV
map-0.12022/01/25 00:49:3538.290N118.413W12.6 32 km (20 mi) SE of Hawthorne, NV
map0.72022/01/25 00:48:3238.892N119.654W0.7 8 km ( 5 mi) E of Gardnerville Ranchos, NV
map1.22022/01/25 00:41:2337.476N118.816W5.05 23 km (14 mi) SE of Mammoth Lakes, CA
map0.22022/01/24 23:55:5938.250N118.357W9.8 38 km (24 mi) SE of Hawthorne, NV
map0.52022/01/24 23:27:5135.857N117.686W8.62 22 km (14 mi) ESE of Little Lake, CA
map1.02022/01/24 23:19:4439.490N120.267W5.2 19 km (12 mi) NNW of Truckee, CA
map0.62022/01/24 23:14:5635.698N117.593W10 11 km ( 7 mi) NE of Ridgecrest, CA
map0.62022/01/24 22:43:0138.156N117.899W8.8 59 km (37 mi) W of Tonopah, NV
map1.02022/01/24 22:25:3439.208N120.445W9.9 25 km (16 mi) WNW of Sunnyside-Tahoe City, CA
map1.02022/01/24 22:19:3633.954N116.335W7.31 15 km (10 mi) E of Desert Hot Springs, CA
map1.02022/01/24 22:15:3935.780N117.596W10.6 17 km (11 mi) W of Searles Valley, CA
map0.42022/01/24 21:39:4633.584N116.807W6.61 13 km ( 8 mi) WNW of Anza, CA
map1.02022/01/24 21:35:2634.584N119.015W3.21 22 km (14 mi) NNW of Fillmore, CA
map0.82022/01/24 21:34:4735.005N118.387W8.4 15 km ( 9 mi) SSE of Tehachapi, CA
map0.12022/01/24 21:10:5533.585N116.805W7.73 13 km ( 8 mi) WNW of Anza, CA
map0.02022/01/24 21:06:5436.585N116.282W4.2 48 km (30 mi) NNW of Pahrump, NV
map-0.12022/01/24 20:57:2138.252N118.368W10.5 38 km (23 mi) SE of Hawthorne, NV
map1.12022/01/24 20:45:3335.673N117.553W10.06 12 km ( 8 mi) ENE of Ridgecrest, CA
map2.72022/01/24 20:41:4840.326N124.653W20.02 43 km (27 mi) SW of Ferndale, CA
map0.62022/01/24 20:38:1237.499N118.901W10.18 17 km (10 mi) SSE of Mammoth Lakes, CA
map-0.12022/01/24 20:34:0837.623N118.863W1.48 10 km ( 6 mi) E of Mammoth Lakes, CA
map0.52022/01/24 20:22:4637.497N118.915W8.86 17 km (10 mi) SSE of Mammoth Lakes, CA
map1.52022/01/24 20:20:2635.697N117.523W4.24 13 km ( 8 mi) SW of Searles Valley, CA
map1.42022/01/24 20:15:1332.754N116.100W10.26 10 km ( 6 mi) WNW of Ocotillo, CA
map0.92022/01/24 19:56:5137.242N116.034W7.2 74 km (46 mi) ENE of Beatty, NV
map0.02022/01/24 18:40:1438.227N118.324W0.0 42 km (26 mi) SE of Hawthorne, NV
map2.02022/01/24 18:25:5637.495N118.849W6.05 20 km (12 mi) SE of Mammoth Lakes, CA
map2.02022/01/24 18:19:5338.167N117.832W9.7 54 km (33 mi) WNW of Tonopah, NV
map0.82022/01/24 18:05:3233.373N116.867W6.22 2 km ( 1 mi) N of Palomar Observatory, CA
map-0.32022/01/24 17:43:3836.720N116.319W6.1 44 km (27 mi) ESE of Beatty, NV
map0.12022/01/24 17:39:4835.615N117.565W7.24 10 km ( 6 mi) E of Ridgecrest, CA
map0.82022/01/24 17:39:2435.903N117.745W8.32 15 km ( 9 mi) ESE of Little Lake, CA
map0.42022/01/24 17:17:3333.522N116.516W13.2 15 km ( 9 mi) ESE of Anza, CA
map1.42022/01/24 16:27:2538.810N122.829W1.56 7 km ( 5 mi) WNW of The Geysers, CA
map1.32022/01/24 16:15:4435.050N117.676W-0.82 2 km ( 1 mi) N of Quarry at BORON (Probable quarry explosion)
map2.42022/01/24 16:15:0738.173N117.879W10.7 58 km (36 mi) WNW of Tonopah, NV
map0.82022/01/24 15:56:5735.928N117.663W3.76 22 km (14 mi) E of Little Lake, CA
map1.82022/01/24 15:44:2137.630N119.417W8.66 19 km (12 mi) SE of Yosemite Valley, CA
map1.62022/01/24 15:44:1534.618N119.056W7.22 25 km (15 mi) SSW of Frazier Park, CA
map1.42022/01/24 15:36:0838.822N122.803W2.79 6 km ( 4 mi) NW of The Geysers, CA
map0.22022/01/24 15:03:2338.257N117.780W0.0 52 km (33 mi) WNW of Tonopah, NV
map0.82022/01/24 14:48:3533.505N116.431W8.09 21 km (13 mi) SSW of La Quinta, CA
map1.62022/01/24 14:47:2638.832N122.825W1.16 9 km ( 5 mi) NW of The Geysers, CA
map2.02022/01/24 14:47:1338.831N122.827W-0.07 9 km ( 5 mi) NW of The Geysers, CA
map1.62022/01/24 14:47:1038.822N122.828W-0.7 8 km ( 5 mi) NW of The Geysers, CA
map1.52022/01/24 14:47:0938.831N122.826W1.04 9 km ( 5 mi) NW of The Geysers, CA
map1.22022/01/24 14:46:5638.833N122.824W1.22 9 km ( 5 mi) NW of The Geysers, CA
map0.82022/01/24 14:36:3235.714N117.558W5.54 15 km ( 9 mi) NE of Ridgecrest, CA
map2.02022/01/24 14:11:5632.150N116.430W12.59 36 km (22 mi) NNE of Ensenada, B.C., MX
map1.12022/01/24 14:00:4735.645N117.423W10.6 14 km ( 8 mi) S of Searles Valley, CA
map1.12022/01/24 13:48:5038.117N122.178W-0.12 18 km (11 mi) SSE of Quarry near Sears Point, CA(Probable quarry explosion)
map1.92022/01/24 13:47:1635.937N117.325W3.02 20 km (12 mi) NNE of Trona, CA
map1.92022/01/24 13:47:0135.941N117.320W3.32 20 km (13 mi) NNE of Trona, CA
map2.22022/01/24 13:43:4037.079N121.032W8.05 16 km (10 mi) W of Los Banos, CA
map0.22022/01/24 13:31:4933.505N116.909W9.16 8 km ( 5 mi) NNW of Aguanga, CA
map1.02022/01/24 13:25:5633.272N116.291W12.2 8 km ( 5 mi) ENE of Borrego Springs, CA
map0.92022/01/24 13:18:0138.825N122.799W2.7 6 km ( 4 mi) NW of The Geysers, CA
map0.92022/01/24 13:13:4435.928N117.731W8.2 16 km (10 mi) E of Little Lake, CA
map1.12022/01/24 13:01:0233.870N117.495W-0.37 2 km ( 1 mi) NNE of Quarry at CORONA (Probable quarry explosion)
map0.92022/01/24 13:00:3133.719N117.332W-0.5 21 km (13 mi) SE of Quarry at CORONA (Probable quarry explosion)
map0.92022/01/24 12:02:1738.607N118.204W0.0 38 km (23 mi) ENE of Hawthorne, NV
map1.52022/01/24 11:55:1238.270N122.171W6.4 2 km ( 1 mi) NNW of Green Valley, CA
map0.52022/01/24 11:53:2038.258N118.357W8.0 38 km (23 mi) SE of Hawthorne, NV
map1.92022/01/24 11:25:0833.358N117.911W14.48 23 km (14 mi) WSW of Dana Point, CA
map1.62022/01/24 11:11:1939.496N122.947W2.89 34 km (21 mi) NE of Redwood Valley, CA
map1.52022/01/24 11:10:5933.995N117.529W3.67 1 km ( 1 mi) WNW of Mira Loma, CA
map0.62022/01/24 10:44:4435.653N117.424W5.05 13 km ( 8 mi) S of Searles Valley, CA
map1.02022/01/24 10:39:4235.966N117.386W0.92 22 km (14 mi) N of Searles Valley, CA
map1.02022/01/24 10:06:4438.826N122.855W2.11 10 km ( 6 mi) WNW of The Geysers, CA
map1.52022/01/24 09:23:5137.629N119.419W7.37 19 km (12 mi) SE of Yosemite Valley, CA
map1.12022/01/24 09:05:1238.083N122.257W7.45 4 km ( 2 mi) SSW of Vallejo, CA
map1.52022/01/24 08:37:3938.255N118.353W8.2 38 km (24 mi) SE of Hawthorne, NV
map1.12022/01/24 08:34:5538.164N117.909W6.6 60 km (37 mi) W of Tonopah, NV
map1.12022/01/24 08:30:4036.676N121.318W4.2 16 km (10 mi) SSE of Ridgemark, CA
map1.32022/01/24 08:30:1634.958N118.735W7.1 17 km (11 mi) NE of Lebec, CA
map1.42022/01/24 07:52:3437.620N119.412W12.62 20 km (12 mi) SE of Yosemite Valley, CA
map1.42022/01/24 07:51:4137.607N122.463W7.19 2 km ( 1 mi) ESE of Pacifica, CA
map2.12022/01/24 07:40:3437.616N119.430W13.53 19 km (12 mi) SE of Yosemite Valley, CA
map1.62022/01/24 07:33:1635.778N117.603W7.71 18 km (11 mi) W of Searles Valley, CA
map1.12022/01/24 07:26:3237.279N121.648W6.59 17 km (10 mi) N of Morgan Hill, CA
map1.52022/01/24 07:24:5337.604N122.477W8.03 1 km ( 1 mi) SE of Pacifica, CA
map0.72022/01/24 07:04:5135.938N117.319W6 20 km (13 mi) NNE of Trona, CA
map1.02022/01/24 06:34:5435.708N117.552W5.68 15 km ( 9 mi) NE of Ridgecrest, CA
map1.52022/01/24 05:58:0238.256N118.359W11.8 38 km (23 mi) SE of Hawthorne, NV
map0.72022/01/24 05:34:0833.715N116.763W15.23 5 km ( 3 mi) SW of Idyllwild, CA
map1.02022/01/24 05:31:1835.937N117.322W4.57 20 km (12 mi) NNE of Trona, CA
map0.12022/01/24 05:30:2435.565N117.529W12.12 15 km ( 9 mi) ESE of Ridgecrest, CA
map1.12022/01/24 05:15:4335.942N117.322W3.58 20 km (13 mi) NNE of Trona, CA
map1.12022/01/24 05:13:1934.168N116.558W8.12 13 km ( 8 mi) WNW of Yucca Valley, CA
map2.22022/01/24 05:11:5738.251N118.356W8.1 38 km (24 mi) SE of Hawthorne, NV
map2.22022/01/24 04:44:4335.937N117.322W3.34 20 km (12 mi) NNE of Trona, CA
map1.12022/01/24 04:43:4934.111N116.936W5.42 13 km ( 8 mi) NE of Yucaipa, CA
map1.92022/01/24 04:41:3338.780N122.745W0.67 1 km ( 1 mi) ENE of The Geysers, CA
map0.42022/01/24 04:31:4833.478N116.433W12.96 24 km (15 mi) SSW of La Quinta, CA
map1.12022/01/24 04:20:1633.372N116.968W6.48 10 km ( 6 mi) W of Palomar Observatory, CA
map1.22022/01/24 04:20:0738.191N117.884W6.9 59 km (37 mi) WNW of Tonopah, NV
map1.12022/01/24 04:19:4733.371N116.968W6 10 km ( 6 mi) W of Palomar Observatory, CA
map0.12022/01/24 04:12:1235.993N120.555W1.09 15 km (10 mi) NW of Parkfield, CA
map1.02022/01/24 04:00:2733.459N116.586W10.22 13 km ( 8 mi) SE of Anza, CA
map-0.22022/01/24 03:32:5036.741N116.299W8.0 45 km (28 mi) ESE of Beatty, NV
map1.22022/01/24 03:19:5238.137N117.995W9.1 67 km (42 mi) W of Tonopah, NV
map1.02022/01/24 03:19:2033.946N117.747W12.69 5 km ( 3 mi) SSE of Chino Hills, CA
map0.92022/01/24 03:14:3138.152N117.975W9.4 66 km (41 mi) W of Tonopah, NV
map0.42022/01/24 03:01:0437.408N114.093W6.2 44 km (27 mi) ESE of Caliente, NV
map0.62022/01/24 02:57:1033.690N116.743W16.55 6 km ( 4 mi) SSW of Idyllwild, CA
map0.92022/01/24 02:40:1138.260N118.359W6.6 37 km (23 mi) SE of Hawthorne, NV
map1.12022/01/24 02:35:2238.151N117.938W10.7 63 km (39 mi) W of Tonopah, NV
map1.42022/01/24 02:10:2436.235N121.703W10.9 31 km (19 mi) S of Carmel Valley Village, CA
map1.42022/01/24 01:15:3034.901N119.135W2.33 6 km ( 4 mi) NNE of Pine Mountain Club, CA
map0.22022/01/24 01:00:3638.838N122.820W0.36 9 km ( 5 mi) WNW of Cobb, CA
map0.32022/01/24 01:00:2238.831N122.838W-0.64 9 km ( 6 mi) NW of The Geysers, CA
map1.12022/01/24 00:54:0238.796N122.831W2.54 7 km ( 4 mi) WNW of The Geysers, CA
map-0.22022/01/24 00:52:4636.755N116.264W9.1 47 km (29 mi) ESE of Beatty, NV
map1.52022/01/24 00:45:3439.251N123.072W7.24 11 km ( 7 mi) E of Redwood Valley, CA
map0.82022/01/24 00:34:4133.992N116.655W12.49 9 km ( 6 mi) SW of Morongo Valley, CA
map1.32022/01/24 00:31:5835.751N117.570W6.72 15 km ( 9 mi) W of Searles Valley, CA
map0.82022/01/24 00:26:3033.391N116.315W10.94 16 km (10 mi) NNE of Borrego Springs, CA
map0.62022/01/24 00:07:4733.381N116.879W6.92 3 km ( 2 mi) NNW of Palomar Observatory, CA
map1.22022/01/23 23:47:0837.680N122.520W5.78 3 km ( 2 mi) WSW of Broadmoor, CA
map0.82022/01/23 23:27:1637.818N122.004W9.23 1 km ( 0 mi) SW of Danville, CA
map-0.12022/01/23 23:18:5636.728N116.151W8.2 57 km (36 mi) ESE of Beatty, NV
map1.82022/01/23 23:11:2335.718N117.543W6.48 14 km ( 9 mi) WSW of Searles Valley, CA
map0.82022/01/23 23:08:5235.865N117.692W9.81 21 km (13 mi) ESE of Little Lake, CA
map0.92022/01/23 22:27:5238.481N119.514W6.3 37 km (23 mi) SSW of Smith Valley, NV
map0.12022/01/23 22:25:1739.259N119.695W5.8 9 km ( 6 mi) WNW of Dayton, NV
map0.82022/01/23 22:02:5935.709N117.567W10.28 14 km ( 9 mi) NE of Ridgecrest, CA
map0.62022/01/23 21:41:1036.070N117.861W2.56 8 km ( 5 mi) ENE of Coso Junction, CA
map1.12022/01/23 21:37:3138.426N118.920W8.3 28 km (17 mi) WSW of Hawthorne, NV
map0.32022/01/23 21:34:1033.712N116.819W15.01 8 km ( 5 mi) ESE of Valle Vista, CA
map0.72022/01/23 21:29:0335.893N117.715W9.66 18 km (11 mi) ESE of Little Lake, CA
map1.42022/01/23 21:26:0438.426N118.922W9.0 28 km (18 mi) WSW of Hawthorne, NV
map1.52022/01/23 21:14:3835.940N117.320W3.75 20 km (13 mi) NNE of Trona, CA
map0.22022/01/23 21:09:0639.435N119.812W6.0 10 km ( 6 mi) S of Reno, NV
map1.42022/01/23 21:03:3938.837N122.804W2.67 7 km ( 4 mi) WNW of Cobb, CA
map0.82022/01/23 20:58:4838.253N118.367W10.4 38 km (23 mi) SE of Hawthorne, NV
map0.82022/01/23 20:52:2936.018N117.811W1.15 13 km ( 8 mi) NE of Little Lake, CA
map0.22022/01/23 20:46:5640.095N119.893W11.8 47 km (29 mi) N of Cold Springs, NV
map0.62022/01/23 20:43:2040.163N119.632W7.3 58 km (36 mi) N of Spanish Springs, NV
map1.52022/01/23 20:37:4638.811N122.814W3.37 6 km ( 4 mi) NW of The Geysers, CA
map1.82022/01/23 20:36:1237.002N114.415W5.9 37 km (23 mi) NW of Mesquite, NV
map0.92022/01/23 20:33:4634.016N116.918W17.4 11 km ( 7 mi) NNW of Banning, CA
map-0.12022/01/23 20:14:5838.248N118.352W8.8 39 km (24 mi) SE of Hawthorne, NV
map0.42022/01/23 20:14:1638.246N118.344W7.1 39 km (24 mi) SE of Hawthorne, NV
map0.72022/01/23 20:12:3136.069N120.993W8.3 20 km (12 mi) SE of King City, CA
map-0.32022/01/23 20:11:3835.640N117.415W5.17 14 km ( 9 mi) SSW of Trona, CA
map-0.32022/01/23 20:11:2835.627N117.579W4.26 9 km ( 5 mi) E of Ridgecrest, CA
map1.12022/01/23 19:54:4235.249N120.315W1.49 27 km (17 mi) NNE of Nipomo, CA
map1.72022/01/23 19:44:3738.250N118.361W7.8 38 km (24 mi) SE of Hawthorne, NV
map0.92022/01/23 19:44:1434.027N116.995W12.7 5 km ( 3 mi) E of Yucaipa, CA
map0.02022/01/23 19:26:3639.121N119.658W11.6 10 km ( 6 mi) NE of Johnson Lane, NV
map2.22022/01/23 18:38:3732.513N115.250W29.21 11 km ( 7 mi) ESE of Puebla, B.C., MX
map-0.22022/01/23 18:22:3338.267N118.381W10.3 36 km (22 mi) SE of Hawthorne, NV
map0.72022/01/23 17:53:5635.861N117.685W12.18 22 km (13 mi) ESE of Little Lake, CA
map1.32022/01/23 17:52:5835.862N117.700W9.12 20 km (13 mi) ESE of Little Lake, CA
map0.32022/01/23 17:46:5835.636N117.467W7.23 16 km (10 mi) SSW of Searles Valley, CA
map2.02022/01/23 17:44:3035.967N120.526W10.06 11 km ( 7 mi) NW of Parkfield, CA
map0.82022/01/23 17:36:0238.252N118.357W8.0 38 km (24 mi) SE of Hawthorne, NV
map0.92022/01/23 17:28:5638.175N117.895W8.1 59 km (37 mi) WNW of Tonopah, NV
map1.92022/01/23 17:20:1836.671N121.266W4.47 18 km (11 mi) SSE of Ridgemark, CA
map-0.32022/01/23 17:04:1538.241N118.338W5.1 40 km (25 mi) SE of Hawthorne, NV
map1.12022/01/23 16:55:1637.338N117.891W0.5 40 km (25 mi) ENE of Big Pine, CA
map0.92022/01/23 16:42:3335.502N118.395W6.93 13 km ( 8 mi) SE of Bodfish, CA
map0.62022/01/23 16:39:2237.614N118.778W6.94 18 km (11 mi) E of Mammoth Lakes, CA
map-0.12022/01/23 16:32:2438.252N118.359W10.9 38 km (24 mi) SE of Hawthorne, NV
map1.52022/01/23 16:22:2435.034N117.674W-0.78 1 km ( 0 mi) NE of Quarry at BORON (Probable quarry explosion)
map0.12022/01/23 16:22:2039.367N119.782W4.3 18 km (11 mi) S of Reno, NV
map0.12022/01/23 16:15:4939.364N119.775W3.0 19 km (12 mi) SSE of Reno, NV
map1.22022/01/23 16:12:5338.258N118.370W10.8 37 km (23 mi) SE of Hawthorne, NV
map0.62022/01/23 16:03:1138.251N118.368W9.9 38 km (23 mi) SE of Hawthorne, NV
map1.02022/01/23 16:01:2238.247N118.370W10.9 38 km (24 mi) SE of Hawthorne, NV
map1.22022/01/23 15:01:4737.417N118.571W13.48 12 km ( 7 mi) WNW of West Bishop, CA
map1.12022/01/23 14:38:5338.184N117.761W10.6 48 km (30 mi) WNW of Tonopah, NV
map1.02022/01/23 13:31:5538.266N118.369W4.1 36 km (23 mi) SE of Hawthorne, NV
map1.02022/01/23 13:09:4035.543N120.860W6.77 11 km ( 7 mi) NNE of Cayucos, CA
map1.12022/01/23 13:03:0435.674N117.460W10.04 12 km ( 7 mi) SSW of Searles Valley, CA
map1.02022/01/23 13:03:0433.438N116.387W5.82 20 km (13 mi) N of Borrego Springs, CA
map0.42022/01/23 12:59:2233.636N116.685W14.42 9 km ( 6 mi) N of Anza, CA
MAP3.22022/01/23 12:57:1533.434N116.397W6.66 20 km (12 mi) N of Borrego Springs, CA
map0.72022/01/23 12:21:2537.644N118.838W6.87 12 km ( 8 mi) E of Mammoth Lakes, CA
map0.72022/01/23 11:33:4737.644N118.839W6.36 12 km ( 8 mi) E of Mammoth Lakes, CA
map0.62022/01/23 11:20:3737.628N118.892W4.15 8 km ( 5 mi) E of Mammoth Lakes, CA
map1.22022/01/23 11:19:0135.544N120.852W6.34 12 km ( 7 mi) NNE of Cayucos, CA
map1.22022/01/23 11:11:5233.252N116.323W10.15 5 km ( 3 mi) E of Borrego Springs, CA
map0.92022/01/23 10:55:0638.147N117.911W6.5 60 km (37 mi) W of Tonopah, NV
map0.72022/01/23 10:22:0237.505N118.839W6.91 19 km (12 mi) SE of Mammoth Lakes, CA
map1.32022/01/23 10:16:5238.248N118.353W7.4 39 km (24 mi) SE of Hawthorne, NV
map0.62022/01/23 10:16:2933.486N116.439W13.24 23 km (14 mi) SSW of La Quinta, CA
map1.32022/01/23 09:16:2933.260N116.826W13.61 6 km ( 4 mi) WNW of Lake Henshaw, CA
map1.22022/01/23 09:16:0438.514N119.381W1.8 30 km (19 mi) S of Smith Valley, NV
map0.52022/01/23 08:59:0738.839N122.811W2.01 8 km ( 5 mi) WNW of Cobb, CA
map2.72022/01/23 08:57:4336.667N121.267W4.91 18 km (11 mi) SSE of Ridgemark, CA
map1.62022/01/23 08:55:4437.873N121.633W4.1 1 km ( 0 mi) NE of Byron, CA
MAP3.12022/01/23 08:53:1036.667N121.270W5.17 18 km (11 mi) SSE of Ridgemark, CA
map0.82022/01/23 08:36:1733.821N117.850W6.48 3 km ( 2 mi) NW of Orange, CA
map1.12022/01/23 08:29:4338.247N118.346W3.1 39 km (24 mi) SE of Hawthorne, NV
map0.72022/01/23 08:15:1335.861N117.691W10.86 21 km (13 mi) ESE of Little Lake, CA
map0.52022/01/23 08:14:0336.084N120.665W7.08 28 km (18 mi) WSW of Coalinga, CA
map1.02022/01/23 08:03:5738.252N118.374W10.4 37 km (23 mi) SE of Hawthorne, NV
map0.72022/01/23 07:59:0638.250N118.359W7.1 38 km (24 mi) SE of Hawthorne, NV
map2.22022/01/23 07:50:3638.248N118.363W11.5 38 km (24 mi) SE of Hawthorne, NV
map2.22022/01/23 07:33:0335.542N120.853W5.78 12 km ( 7 mi) NNE of Cayucos, CA
map1.82022/01/23 07:06:3734.271N119.764W0 18 km (11 mi) SSW of Santa Barbara, CA
MAP3.22022/01/23 07:00:0740.406N125.358W25.47 94 km (59 mi) W of Ferndale, CA
map0.92022/01/23 06:46:2838.252N118.352W0.0 38 km (24 mi) SE of Hawthorne, NV
map1.12022/01/23 06:29:1137.642N122.046W3.33 3 km ( 2 mi) E of Hayward, CA
map0.42022/01/23 05:53:0338.822N122.825W0.93 8 km ( 5 mi) NW of The Geysers, CA
map1.02022/01/23 05:10:3733.255N116.326W10.01 5 km ( 3 mi) E of Borrego Springs, CA
map0.22022/01/23 04:42:5533.495N116.586W6.16 11 km ( 7 mi) SE of Anza, CA
map0.92022/01/23 04:40:0138.250N118.356W0.5 38 km (24 mi) SE of Hawthorne, NV
map0.62022/01/23 04:27:3238.807N122.835W1.73 8 km ( 5 mi) WNW of The Geysers, CA
map0.52022/01/23 04:15:4638.279N118.395W12.3 34 km (21 mi) SE of Hawthorne, NV
map1.22022/01/23 03:51:2039.412N119.939W8.8 11 km ( 7 mi) S of Mogul, NV
map2.12022/01/23 03:34:3638.251N118.362W7.2 38 km (24 mi) SE of Hawthorne, NV
map1.52022/01/23 02:56:2538.597N122.793W4.63 6 km ( 4 mi) NNE of Windsor, CA
map1.22022/01/23 02:40:4136.083N117.865W2.35 9 km ( 5 mi) ENE of Coso Junction, CA
map1.32022/01/23 02:33:5138.602N122.801W6.41 6 km ( 4 mi) E of Healdsburg, CA
map0.72022/01/23 02:30:0133.705N116.714W18.21 4 km ( 2 mi) S of Idyllwild, CA
map0.72022/01/23 02:29:3835.606N117.596W4.61 7 km ( 5 mi) ESE of Ridgecrest, CA
map2.32022/01/23 02:22:2440.087N121.573W9 24 km (15 mi) NNE of Forest Ranch, CA
map1.52022/01/23 02:20:0434.050N116.971W12.78 7 km ( 4 mi) ENE of Yucaipa, CA
map0.82022/01/23 02:11:1038.814N122.820W2.91 7 km ( 4 mi) NW of The Geysers, CA
map1.02022/01/23 01:50:3034.050N117.244W16.35 2 km ( 1 mi) E of Loma Linda, CA
map2.72022/01/23 01:42:4940.299N124.552W11.68 39 km (24 mi) SW of Ferndale, CA
map1.02022/01/23 01:20:5733.929N116.792W16.8 1 km ( 1 mi) NNW of Cabazon, CA
map0.82022/01/23 01:20:3438.249N118.354W0.1 39 km (24 mi) SE of Hawthorne, NV
map-0.32022/01/23 01:09:3737.639N118.914W4.98 6 km ( 4 mi) E of Mammoth Lakes, CA
map1.02022/01/23 01:03:2938.247N118.356W8.1 39 km (24 mi) SE of Hawthorne, NV
map1.82022/01/23 00:33:4833.170N116.129W10.68 3 km ( 2 mi) N of Ocotillo Wells, CA
map2.62022/01/23 00:23:0840.309N124.592W20.09 41 km (25 mi) SW of Ferndale, CA
map0.62022/01/22 23:23:0336.082N117.859W2.07 9 km ( 6 mi) ENE of Coso Junction, CA
map1.12022/01/22 23:22:2936.090N117.894W5.85 7 km ( 4 mi) NE of Coso Junction, CA
map0.32022/01/22 23:18:0133.699N116.827W15.24 8 km ( 5 mi) SE of Valle Vista, CA
map0.82022/01/22 23:12:3436.088N117.894W5.73 7 km ( 4 mi) NE of Coso Junction, CA
map1.42022/01/22 23:02:2733.191N115.598W2.71 9 km ( 6 mi) SW of Niland, CA
map1.22022/01/22 22:58:4833.191N115.597W2.59 9 km ( 6 mi) SW of Niland, CA
map1.32022/01/22 22:55:5833.190N115.601W2.94 9 km ( 6 mi) SW of Niland, CA
map0.62022/01/22 22:51:0536.948N121.550W6.25 7 km ( 4 mi) SSE of Gilroy, CA
map0.72022/01/22 22:40:0738.251N118.352W0.0 39 km (24 mi) SE of Hawthorne, NV
map1.12022/01/22 22:33:2433.447N116.541W10.36 17 km (11 mi) SE of Anza, CA
map0.52022/01/22 22:29:3834.010N117.212W9.89 6 km ( 4 mi) SSW of Redlands, CA
map0.32022/01/22 21:57:4538.250N118.354W1.5 39 km (24 mi) SE of Hawthorne, NV
map0.02022/01/22 21:40:2237.564N118.829W8.85 15 km (10 mi) ESE of Mammoth Lakes, CA
map1.72022/01/22 21:31:5138.258N118.359W8.6 38 km (23 mi) SE of Hawthorne, NV
map1.02022/01/22 21:21:2334.171N117.588W9.16 5 km ( 3 mi) N of Rancho Cucamonga, CA
map0.92022/01/22 21:19:4436.776N121.435W9.28 7 km ( 5 mi) WSW of Ridgemark, CA
map1.82022/01/22 21:14:4935.060N119.191W12.87 19 km (12 mi) E of Maricopa, CA
map0.72022/01/22 21:09:2538.251N118.350W0.1 39 km (24 mi) SE of Hawthorne, NV
map2.02022/01/22 20:49:3935.060N119.189W12.55 19 km (12 mi) E of Maricopa, CA
map0.32022/01/22 20:26:1335.874N117.695W5.47 20 km (13 mi) ESE of Little Lake, CA
map2.32022/01/22 20:15:5838.815N122.793W1.59 5 km ( 3 mi) NW of The Geysers, CA
map0.82022/01/22 19:07:3638.152N118.031W1.4 66 km (41 mi) SE of Hawthorne, NV
map1.82022/01/22 18:42:5939.490N122.948W6.74 33 km (21 mi) NE of Redwood Valley, CA
map1.32022/01/22 18:31:4937.450N118.813W3.81 25 km (16 mi) SE of Mammoth Lakes, CA
map0.82022/01/22 18:19:0638.253N118.346W0.0 39 km (24 mi) SE of Hawthorne, NV
map1.42022/01/22 18:16:1538.265N118.362W9.8 37 km (23 mi) SE of Hawthorne, NV
map1.12022/01/22 18:07:2238.246N118.363W7.9 38 km (24 mi) SE of Hawthorne, NV
map1.22022/01/22 18:01:1938.061N118.605W13.1 52 km (32 mi) S of Hawthorne, NV
map1.02022/01/22 18:00:0738.561N119.506W6.1 29 km (18 mi) SSW of Smith Valley, NV
map0.82022/01/22 17:39:2338.253N118.364W1.2 38 km (23 mi) SE of Hawthorne, NV
map1.12022/01/22 17:36:0636.072N120.183W7.74 9 km ( 6 mi) NNW of Avenal, CA
map1.82022/01/22 17:34:3638.786N122.724W2 3 km ( 2 mi) ENE of The Geysers, CA
map2.42022/01/22 17:20:2738.828N122.812W1.88 7 km ( 5 mi) NW of The Geysers, CA
map2.62022/01/22 17:20:1038.545N119.538W3.71 31 km (20 mi) SSW of Smith Valley, NV
map2.32022/01/22 17:20:0938.557N119.515W5 29 km (18 mi) SSW of Smith Valley, NV
map1.32022/01/22 16:58:4936.822N115.840W5.8 70 km (43 mi) NNE of Pahrump, NV
map1.02022/01/22 16:51:5038.251N118.352W0.8 39 km (24 mi) SE of Hawthorne, NV
map1.22022/01/22 16:42:4738.250N118.361W8.9 38 km (24 mi) SE of Hawthorne, NV
map1.32022/01/22 16:37:4038.254N118.358W9.0 38 km (24 mi) SE of Hawthorne, NV
map1.32022/01/22 16:20:0238.258N118.366W10.1 37 km (23 mi) SE of Hawthorne, NV
map2.02022/01/22 16:14:1438.255N118.356W8.3 38 km (24 mi) SE of Hawthorne, NV
map1.12022/01/22 16:01:4438.247N118.357W9.7 39 km (24 mi) SE of Hawthorne, NV
map2.92022/01/22 15:51:1638.251N118.358W10.4 38 km (24 mi) SE of Hawthorne, NV
map2.22022/01/22 15:43:0534.948N118.540W7.14 20 km (12 mi) NNE of Neenach, CA
map1.52022/01/22 15:37:0738.139N118.283W1.1 52 km (32 mi) SE of Hawthorne, NV
map1.62022/01/22 15:32:4138.279N118.329W16.0 38 km (23 mi) SE of Hawthorne, NV
map1.22022/01/22 15:21:5938.242N118.348W0.0 40 km (25 mi) SE of Hawthorne, NV
map2.22022/01/22 15:20:1438.249N118.367W8.4 38 km (24 mi) SE of Hawthorne, NV
map1.12022/01/22 15:17:3235.627N117.425W9.44 16 km (10 mi) S of Searles Valley, CA
map2.32022/01/22 15:17:1638.253N118.363W11.6 38 km (24 mi) SE of Hawthorne, NV
map1.42022/01/22 15:10:3836.329N120.924W5.07 22 km (14 mi) NE of King City, CA
map1.32022/01/22 15:09:0438.259N118.359W7.7 38 km (23 mi) SE of Hawthorne, NV
map1.42022/01/22 15:07:3035.811N118.509W6.7 10 km ( 6 mi) NW of Kernville, CA
map1.82022/01/22 15:03:5738.249N118.372W13.3 38 km (23 mi) SE of Hawthorne, NV
map1.42022/01/22 15:03:1132.977N115.555W8.2 2 km ( 1 mi) W of Brawley, CA
map1.02022/01/22 15:02:2938.237N118.365W7.3 39 km (24 mi) SE of Hawthorne, NV
map1.82022/01/22 14:58:3838.265N118.347W10.0 38 km (23 mi) SE of Hawthorne, NV
map2.22022/01/22 14:57:2238.251N118.366W8.2 38 km (24 mi) SE of Hawthorne, NV
map2.22022/01/22 14:55:4738.251N118.360W11.2 38 km (24 mi) SE of Hawthorne, NV
map1.92022/01/22 14:50:5838.255N118.357W11.5 38 km (24 mi) SE of Hawthorne, NV
map0.82022/01/22 14:49:1038.252N118.351W0.9 39 km (24 mi) SE of Hawthorne, NV
map1.12022/01/22 14:47:0536.673N121.300W8.06 17 km (10 mi) SSE of Ridgemark, CA
map1.82022/01/22 14:46:4338.250N118.352W9.1 39 km (24 mi) SE of Hawthorne, NV
map2.12022/01/22 14:45:4238.248N118.357W10.5 39 km (24 mi) SE of Hawthorne, NV
map1.92022/01/22 14:42:4938.252N118.359W9.8 38 km (24 mi) SE of Hawthorne, NV
MAP4.32022/01/22 14:40:1138.257N118.353W11.7 38 km (24 mi) SE of Hawthorne, NV
map1.62022/01/22 14:18:2738.793N122.738W0.59 2 km ( 1 mi) NE of The Geysers, CA
map1.22022/01/22 14:18:1438.826N122.811W0.93 7 km ( 4 mi) NW of The Geysers, CA
map1.52022/01/22 14:02:4937.526N118.471W7.82 16 km (10 mi) NNW of Dixon Lane-Meadow Creek, CA
map0.92022/01/22 13:15:1133.858N117.776W8.77 5 km ( 3 mi) SE of Yorba Linda, CA
map1.22022/01/22 12:57:3337.465N118.797W4.1 25 km (16 mi) SE of Mammoth Lakes, CA
map2.52022/01/22 12:57:1540.541N124.002W22.44 8 km ( 5 mi) E of Hydesville, CA
map1.32022/01/22 11:53:0436.849N121.556W6.94 2 km ( 1 mi) WNW of San Juan Bautista, CA
map1.62022/01/22 10:59:5434.034N117.049W17.5 1 km ( 0 mi) W of Yucaipa, CA
map1.52022/01/22 10:28:3536.566N121.113W9.36 25 km (15 mi) NE of Soledad, CA
map1.22022/01/22 10:01:4933.056N114.990W2.9 45 km (28 mi) NE of Holtville, CA
map1.22022/01/22 08:12:5938.820N122.814W1.63 7 km ( 4 mi) NW of The Geysers, CA
map0.72022/01/22 07:22:0638.148N117.997W11.1 68 km (42 mi) W of Tonopah, NV
map0.92022/01/22 07:01:2535.670N121.084W5.44 12 km ( 7 mi) N of Cambria, CA
map0.02022/01/22 06:50:0839.377N119.976W0.0 14 km ( 9 mi) N of Incline Village, NV
map0.52022/01/22 06:33:3838.793N122.765W0.49 2 km ( 1 mi) NNW of The Geysers, CA
map0.92022/01/22 05:49:1338.797N122.734W1.11 3 km ( 2 mi) NE of The Geysers, CA
map0.72022/01/22 05:45:2840.926N116.296W3.7 29 km (18 mi) NW of Carlin, NV
map0.62022/01/22 05:45:2040.909N116.398W0.0 33 km (20 mi) NW of Carlin, NV
map1.42022/01/22 05:41:3035.154N118.191W8.81 11 km ( 7 mi) N of Mojave, CA
map0.72022/01/22 05:29:1833.477N116.431W12.24 24 km (15 mi) SSW of La Quinta, CA
map1.12022/01/22 05:19:4335.051N118.374W8.87 11 km ( 7 mi) SE of Tehachapi, CA
map0.92022/01/22 05:08:4640.388N119.847W15.8 58 km (36 mi) E of Janesville, CA
map1.72022/01/22 04:53:4334.222N117.474W7.04 5 km ( 3 mi) SSE of Lytle Creek, CA
map1.22022/01/22 04:37:4137.320N122.144W4.28 5 km ( 3 mi) SW of Loyola, CA
map0.62022/01/22 04:23:4137.495N118.852W4.32 19 km (12 mi) SE of Mammoth Lakes, CA
map1.32022/01/22 04:22:3136.981N121.646W5.16 7 km ( 5 mi) WSW of Gilroy, CA
map-0.22022/01/22 04:13:3536.670N116.005W0.0 51 km (32 mi) N of Pahrump, NV
map0.52022/01/22 03:46:3837.490N118.859W3.79 19 km (12 mi) SSE of Mammoth Lakes, CA
map0.92022/01/22 03:20:0638.822N122.850W2.86 10 km ( 6 mi) WNW of The Geysers, CA
map0.62022/01/22 02:46:4038.826N122.853W1.53 10 km ( 6 mi) WNW of The Geysers, CA
map1.42022/01/22 02:43:1433.011N115.585W5.28 4 km ( 3 mi) SE of Westmorland, CA
map2.12022/01/22 02:17:0735.948N119.762W20.12 19 km (12 mi) ESE of Kettleman City, CA
map0.52022/01/22 02:09:5638.476N118.285W3.0 30 km (19 mi) E of Hawthorne, NV
map1.22022/01/22 01:41:3938.897N122.831W2.33 9 km ( 6 mi) S of Kelseyville, CA
map0.52022/01/22 01:25:5136.002N120.564W3.53 17 km (10 mi) NW of Parkfield, CA
map1.52022/01/22 01:24:0733.996N118.340W7.97 1 km ( 0 mi) E of View Park-Windsor Hills, CA
map1.22022/01/22 01:22:0138.837N122.808W2.2 8 km ( 5 mi) WNW of Cobb, CA
map0.52022/01/22 00:59:0338.162N117.900W12.3 59 km (37 mi) W of Tonopah, NV
map1.12022/01/22 00:50:1633.479N116.432W12.4 23 km (15 mi) SSW of La Quinta, CA
map0.22022/01/22 00:02:1539.355N119.724W0.0 17 km (11 mi) NW of Dayton, NV
map0.92022/01/21 23:57:3938.818N122.822W3.12 7 km ( 5 mi) NW of The Geysers, CA
map1.22022/01/21 23:54:4538.845N122.830W2.01 10 km ( 6 mi) WNW of Cobb, CA
map1.32022/01/21 23:42:3338.787N122.734W1.29 2 km ( 1 mi) ENE of The Geysers, CA
map1.12022/01/21 23:33:1638.788N122.767W2.44 1 km ( 1 mi) NW of The Geysers, CA
map1.22022/01/21 23:24:1138.830N122.796W0.82 6 km ( 4 mi) W of Cobb, CA
map1.52022/01/21 23:23:4738.828N122.795W1.03 6 km ( 4 mi) W of Cobb, CA
map0.92022/01/21 23:20:5139.154N119.636W7.3 10 km ( 6 mi) SSW of Dayton, NV
map0.62022/01/21 22:59:3238.838N122.808W2.5 8 km ( 5 mi) WNW of Cobb, CA
map2.12022/01/21 22:28:5635.964N119.762W16.01 19 km (12 mi) ESE of Kettleman City, CA
map1.02022/01/21 22:15:2033.515N116.489W15.22 18 km (11 mi) ESE of Anza, CA
map1.92022/01/21 22:13:0735.969N119.773W12.7 18 km (11 mi) ESE of Kettleman City, CA
map0.62022/01/21 22:01:3838.790N122.761W2.19 1 km ( 1 mi) NNW of The Geysers, CA
map0.92022/01/21 21:43:2438.822N122.805W2.6 7 km ( 4 mi) NW of The Geysers, CA
map2.12022/01/21 21:37:0235.940N119.774W18.09 19 km (12 mi) ESE of Kettleman City, CA
map1.12022/01/21 21:33:3133.250N117.434W15.57 6 km ( 3 mi) WNW of Camp Pendleton South, CA
map1.32022/01/21 21:32:3033.645N116.703W13.22 10 km ( 6 mi) NNW of Anza, CA
map0.12022/01/21 21:28:0036.975N115.935W6.0 73 km (45 mi) E of Beatty, NV
map2.02022/01/21 21:17:5335.948N119.743W18.04 21 km (13 mi) ESE of Kettleman City, CA
map1.32022/01/21 21:13:5933.818N117.642W5.9 9 km ( 6 mi) SW of Corona, CA
map0.92022/01/21 20:59:5938.836N122.818W1.88 8 km ( 5 mi) W of Cobb, CA
map1.52022/01/21 20:56:1138.835N122.818W1.3 8 km ( 5 mi) NW of The Geysers, CA
map0.62022/01/21 20:55:5638.846N122.796W1.84 7 km ( 4 mi) WNW of Cobb, CA
map0.92022/01/21 20:31:5033.654N116.713W15.77 10 km ( 6 mi) S of Idyllwild, CA
map0.92022/01/21 20:11:1834.011N117.109W13.72 6 km ( 4 mi) WNW of Calimesa, CA
map1.52022/01/21 20:04:4140.612N122.166W13.13 6 km ( 4 mi) ESE of Bella Vista, CA
map0.62022/01/21 20:00:4438.788N122.766W2.69 1 km ( 1 mi) NW of The Geysers, CA
map1.12022/01/21 19:52:0234.022N117.195W16.6 4 km ( 2 mi) SSW of Redlands, CA
map0.22022/01/21 19:34:0037.512N118.856W2.85 18 km (11 mi) SE of Mammoth Lakes, CA
map1.12022/01/21 18:46:4933.164N116.441W13.49 12 km ( 7 mi) SSW of Borrego Springs, CA
map1.22022/01/21 18:42:2637.377N121.451W6.61 30 km (19 mi) WSW of Patterson, CA
map0.62022/01/21 18:20:3238.815N122.761W2.23 3 km ( 2 mi) WSW of Cobb, CA
map1.42022/01/21 17:45:1838.791N122.760W1 1 km ( 1 mi) N of The Geysers, CA
map1.52022/01/21 17:35:3237.334N118.152W12.23 22 km (13 mi) E of Bishop, CA
MAP3.02022/01/21 17:01:4232.862N116.081W7.23 16 km (10 mi) NNW of Ocotillo, CA
map0.92022/01/21 17:01:0038.831N122.819W1.52 8 km ( 5 mi) NW of The Geysers, CA
map1.32022/01/21 16:53:4337.204N121.595W3.96 10 km ( 6 mi) NNE of Morgan Hill, CA
map0.42022/01/21 16:53:3238.834N122.816W1.67 8 km ( 5 mi) W of Cobb, CA
map0.92022/01/21 16:49:5436.831N121.514W8.84 3 km ( 2 mi) SE of San Juan Bautista, CA
map1.42022/01/21 16:45:3833.914N117.901W5.77 0 km ( 0 mi) SSW of Brea, CA
map2.32022/01/21 16:33:3040.332N124.236W26.46 22 km (13 mi) SSW of Rio Dell, CA
map1.32022/01/21 16:23:2734.001N116.818W14.22 10 km ( 6 mi) NNW of Cabazon, CA
map1.62022/01/21 16:23:1934.002N116.821W13 10 km ( 6 mi) NNE of Banning, CA
map1.12022/01/21 16:17:4438.813N122.755W0.65 3 km ( 2 mi) WSW of Cobb, CA
map1.02022/01/21 16:13:4035.916N117.706W6.85 18 km (11 mi) E of Little Lake, CA
map1.22022/01/21 16:00:1634.007N118.348W7.03 1 km ( 1 mi) N of View Park-Windsor Hills, CA
map1.92022/01/21 15:56:1437.727N121.990W7.5 5 km ( 3 mi) WNW of Dublin, CA
map1.62022/01/21 15:54:1138.496N119.393W0.0 32 km (20 mi) S of Smith Valley, NV
map2.22022/01/21 15:41:0837.727N121.988W6.34 5 km ( 3 mi) WNW of Dublin, CA
map1.62022/01/21 15:37:5437.921N122.125W4.73 4 km ( 2 mi) N of Lafayette, CA
map0.32022/01/21 15:35:2637.489N118.821W2.47 22 km (13 mi) SE of Mammoth Lakes, CA
map1.62022/01/21 15:32:5638.751N122.722W0.64 4 km ( 3 mi) SE of The Geysers, CA
map0.42022/01/21 15:29:0738.758N122.718W1.49 4 km ( 2 mi) ESE of The Geysers, CA
map1.22022/01/21 15:20:1438.154N117.906W9.4 60 km (37 mi) W of Tonopah, NV
map1.62022/01/21 15:13:0535.005N118.183W-0.86 1 km ( 1 mi) WSW of Quarry at TPO-DBM (Probable quarry explosion)
map0.92022/01/21 15:05:4738.825N122.764W0.38 4 km ( 2 mi) W of Cobb, CA
map1.32022/01/21 15:01:4838.405N118.902W9.2 28 km (17 mi) WSW of Hawthorne, NV
map0.42022/01/21 13:47:1737.487N118.827W5.36 21 km (13 mi) SE of Mammoth Lakes, CA
map1.32022/01/21 13:44:3233.688N116.733W15.42 6 km ( 4 mi) SSW of Idyllwild, CA
map0.42022/01/21 13:39:3838.846N122.816W0.94 9 km ( 5 mi) WNW of Cobb, CA
map1.22022/01/21 13:34:0533.423N116.615W8.35 16 km (10 mi) SSE of Anza, CA
map1.12022/01/21 13:32:2836.570N121.158W6.63 22 km (14 mi) NE of Soledad, CA
map1.72022/01/21 13:18:0638.759N122.740W0.52 2 km ( 2 mi) SE of The Geysers, CA
map2.62022/01/21 13:17:4338.762N122.740W0.9 2 km ( 1 mi) SE of The Geysers, CA
map1.62022/01/21 13:17:2838.761N122.737W1.36 2 km ( 2 mi) SE of The Geysers, CA
map1.32022/01/21 13:17:0333.425N116.617W8.14 15 km (10 mi) SSE of Anza, CA
map0.92022/01/21 13:15:0038.762N122.737W1.03 2 km ( 2 mi) SE of The Geysers, CA
map0.92022/01/21 12:58:5738.848N122.819W1.94 9 km ( 5 mi) WNW of Cobb, CA
map0.92022/01/21 12:45:3333.865N117.494W-0.53 2 km ( 1 mi) NNE of Quarry at CORONA (Probable quarry explosion)
map0.82022/01/21 12:19:5639.560N120.024W8.5 6 km ( 3 mi) NNW of Verdi, NV
map0.62022/01/21 12:12:5738.834N122.819W1.5 8 km ( 5 mi) NW of The Geysers, CA
map0.42022/01/21 11:55:2638.832N122.819W1.98 8 km ( 5 mi) NW of The Geysers, CA
map1.02022/01/21 11:28:2236.025N117.828W1.7 11 km ( 7 mi) ESE of Coso Junction, CA
map1.62022/01/21 11:21:5837.928N122.115W5.81 5 km ( 3 mi) N of Lafayette, CA
map1.22022/01/21 11:20:0938.839N122.815W0.49 8 km ( 5 mi) WNW of Cobb, CA
map2.02022/01/21 11:17:0738.161N118.242W7.1 52 km (33 mi) SE of Hawthorne, NV
map1.62022/01/21 11:02:0336.772N121.426W9.58 7 km ( 4 mi) SW of Ridgemark, CA
map0.22022/01/21 10:36:4433.861N116.814W15.79 7 km ( 4 mi) SSW of Cabazon, CA
map0.62022/01/21 10:33:0838.826N122.765W2.73 4 km ( 2 mi) W of Cobb, CA
map0.92022/01/21 10:29:0138.792N122.734W2.01 3 km ( 2 mi) NE of The Geysers, CA
map0.92022/01/21 10:24:0638.827N122.854W1.5 10 km ( 6 mi) WNW of The Geysers, CA
map1.22022/01/21 09:57:0734.616N117.334W-1.14 3 km ( 2 mi) W of Quarry at ORO-GRANDE (Probable quarry explosion)
map0.62022/01/21 09:27:4733.647N116.711W14.31 10 km ( 6 mi) S of Idyllwild, CA
map0.42022/01/21 08:53:5838.816N122.820W2.86 7 km ( 4 mi) NW of The Geysers, CA
map1.32022/01/21 08:33:4335.775N117.606W10.78 18 km (11 mi) NNE of Ridgecrest, CA
map1.42022/01/21 08:23:1838.837N122.818W1.61 8 km ( 5 mi) WNW of Cobb, CA
map0.62022/01/21 08:20:2338.843N122.840W1.32 10 km ( 6 mi) NW of The Geysers, CA
map0.92022/01/21 08:05:3037.443N118.678W10.86 22 km (14 mi) WNW of West Bishop, CA
map0.62022/01/21 07:58:0738.824N122.757W3.22 3 km ( 2 mi) W of Cobb, CA
map0.82022/01/21 07:37:4933.366N116.345W4.81 13 km ( 8 mi) NNE of Borrego Springs, CA